^^
B2 Weather Station Historical Data
Daily Summary for December 31, 2017 Units:  Both    English   Metric
Daily Weekly Monthly Yearly Custom
  High: Low: Average:
Temperature: 9.3 °F /  -12.6 °C -3.2 °F /  -19.6 °C 2.3 °F /  -16.5 °C
Dew Point: 1.5 °F /  -16.9 °C -9.4 °F /  -23 °C -3.7 °F /  -19.8 °C
Humidity: 82% 70% 76%
Wind Speed: 13.8mph /  22.2km/h - 8.1mph /  13km/h
Wind Gust: 13.8mph /  22.2km/h - -
Wind- - WNW
Pressure: 30.73 in /  1040.5 hPa 30.51 in /  1033.1 hPa -
Precipitation: 0.00 in /  0 mm    
Historical Graphs
 
 
Tabular Data for December 31, 2017
Time Temperature Dew Point Pressure Wind Wind Speed Wind Gust Humidity Rainfall Rate (Hourly) solar
00:00 -1.2 °F /  -18.4 °C -6.9 °F /  -21.6 °C 30.55in /  1034.4hPa WNW 7.0mph /  11.3km/h 7.0mph /  11.3km/h 76% 0.00in /  0mm 0.0 W/m2
00:05 -1.2 °F /  -18.4 °C -6.9 °F /  -21.6 °C 30.54in /  1034.1hPa WNW 9.2mph /  14.8km/h 9.2mph /  14.8km/h 76% 0.00in /  0mm 0.0 W/m2
00:06 -1.2 °F /  -18.4 °C -6.9 °F /  -21.6 °C 30.54in /  1034.1hPa WNW 6.9mph /  11.1km/h 6.9mph /  11.1km/h 76% 0.00in /  0mm 0.0 W/m2
00:11 -1.1 °F /  -18.4 °C -6.8 °F /  -21.6 °C 30.54in /  1034.1hPa WNW 5.8mph /  9.3km/h 5.8mph /  9.3km/h 76% 0.00in /  0mm 0.0 W/m2
00:12 -1.1 °F /  -18.4 °C -6.8 °F /  -21.6 °C 30.54in /  1034.1hPa WNW 6.9mph /  11.1km/h 6.9mph /  11.1km/h 76% 0.00in /  0mm 0.0 W/m2
00:14 -1.1 °F /  -18.4 °C -6.8 °F /  -21.6 °C 30.54in /  1034.1hPa WNW 8.1mph /  13km/h 8.1mph /  13km/h 76% 0.00in /  0mm 0.0 W/m2
00:19 -1.0 °F /  -18.3 °C -6.7 °F /  -21.5 °C 30.54in /  1034.1hPa NW 6.0mph /  9.7km/h 6.0mph /  9.7km/h 76% 0.00in /  0mm 0.0 W/m2
00:20 -1.0 °F /  -18.3 °C -6.7 °F /  -21.5 °C 30.54in /  1034.1hPa WNW 4.6mph /  7.4km/h 5.1mph /  8.2km/h 76% 0.00in /  0mm 0.0 W/m2
00:24 -1.0 °F /  -18.3 °C -6.7 °F /  -21.5 °C 30.53in /  1033.7hPa WNW 4.0mph /  6.4km/h 4.0mph /  6.4km/h 76% 0.00in /  0mm 0.0 W/m2
00:27 -1.0 °F /  -18.3 °C -6.7 °F /  -21.5 °C 30.53in /  1033.7hPa NW 5.8mph /  9.3km/h 5.8mph /  9.3km/h 76% 0.00in /  0mm 0.0 W/m2
00:30 -0.9 °F /  -18.3 °C -6.9 °F /  -21.6 °C 30.54in /  1034.1hPa WNW 9.2mph /  14.8km/h 9.2mph /  14.8km/h 75% 0.00in /  0mm 0.0 W/m2
00:31 -0.9 °F /  -18.3 °C -6.9 °F /  -21.6 °C 30.54in /  1034.1hPa WNW 9.2mph /  14.8km/h 9.2mph /  14.8km/h 75% 0.00in /  0mm 0.0 W/m2
00:33 -0.9 °F /  -18.3 °C -6.9 °F /  -21.6 °C 30.53in /  1033.7hPa WNW 6.9mph /  11.1km/h 6.9mph /  11.1km/h 75% 0.00in /  0mm 0.0 W/m2
00:37 -0.9 °F /  -18.3 °C -6.9 °F /  -21.6 °C 30.53in /  1033.7hPa WNW 8.1mph /  13km/h 8.1mph /  13km/h 75% 0.00in /  0mm 0.0 W/m2
00:39 -0.9 °F /  -18.3 °C -6.9 °F /  -21.6 °C 30.52in /  1033.4hPa NW 5.8mph /  9.3km/h 5.8mph /  9.3km/h 75% 0.00in /  0mm 0.0 W/m2
00:44 -0.9 °F /  -18.3 °C -6.9 °F /  -21.6 °C 30.52in /  1033.4hPa WNW 8.1mph /  13km/h 8.1mph /  13km/h 75% 0.00in /  0mm 0.0 W/m2
00:46 -0.9 °F /  -18.3 °C -6.9 °F /  -21.6 °C 30.51in /  1033.1hPa NW 6.9mph /  11.1km/h 6.9mph /  11.1km/h 75% 0.00in /  0mm 0.0 W/m2
00:49 -0.9 °F /  -18.3 °C -6.9 °F /  -21.6 °C 30.51in /  1033.1hPa WNW 6.9mph /  11.1km/h 6.9mph /  11.1km/h 75% 0.00in /  0mm 0.0 W/m2
00:51 -0.9 °F /  -18.3 °C -6.9 °F /  -21.6 °C 30.51in /  1033.1hPa WNW 6.9mph /  11.1km/h 6.9mph /  11.1km/h 75% 0.00in /  0mm 0.0 W/m2
00:56 -0.9 °F /  -18.3 °C -6.9 °F /  -21.6 °C 30.52in /  1033.4hPa NW 5.0mph /  8km/h 5.0mph /  8km/h 75% 0.00in /  0mm 0.0 W/m2
01:01 -0.9 °F /  -18.3 °C -6.9 °F /  -21.6 °C 30.52in /  1033.4hPa NNW 5.0mph /  8km/h 5.0mph /  8km/h 75% 0.00in /  0mm 0.0 W/m2
01:07 -0.9 °F /  -18.3 °C -6.9 °F /  -21.6 °C 30.52in /  1033.4hPa WNW 5.8mph /  9.3km/h 5.8mph /  9.3km/h 75% 0.00in /  0mm 0.0 W/m2
01:12 -0.9 °F /  -18.3 °C -6.9 °F /  -21.6 °C 30.52in /  1033.4hPa NW 7.0mph /  11.3km/h 7.0mph /  11.3km/h 75% 0.00in /  0mm 0.0 W/m2
01:17 -0.9 °F /  -18.3 °C -6.9 °F /  -21.6 °C 30.53in /  1033.7hPa WNW 3.5mph /  5.6km/h 3.5mph /  5.6km/h 75% 0.00in /  0mm 0.0 W/m2
01:22 -1.0 °F /  -18.3 °C -7.0 °F /  -21.7 °C 30.54in /  1034.1hPa WNW 8.1mph /  13km/h 8.1mph /  13km/h 75% 0.00in /  0mm 0.0 W/m2
01:23 -1.0 °F /  -18.3 °C -7.0 °F /  -21.7 °C 30.54in /  1034.1hPa WNW 10.4mph /  16.7km/h 10.4mph /  16.7km/h 75% 0.00in /  0mm 0.0 W/m2
01:24 -1.0 °F /  -18.3 °C -7.0 °F /  -21.7 °C 30.54in /  1034.1hPa WNW 8.1mph /  13km/h 8.1mph /  13km/h 75% 0.00in /  0mm 0.0 W/m2
01:29 -1.0 °F /  -18.3 °C -7.0 °F /  -21.7 °C 30.53in /  1033.7hPa NW 8.1mph /  13km/h 8.1mph /  13km/h 75% 0.00in /  0mm 0.0 W/m2
01:30 -1.1 °F /  -18.4 °C -7.1 °F /  -21.7 °C 30.53in /  1033.7hPa NW 7.0mph /  11.3km/h 7.0mph /  11.3km/h 75% 0.00in /  0mm 0.0 W/m2
01:35 -1.0 °F /  -18.3 °C -7.0 °F /  -21.7 °C 30.53in /  1033.7hPa NW 11.5mph /  18.5km/h 11.5mph /  18.5km/h 75% 0.00in /  0mm 0.0 W/m2
01:37 -1.0 °F /  -18.3 °C -7.0 °F /  -21.7 °C 30.53in /  1033.7hPa WNW 10.4mph /  16.7km/h 10.4mph /  16.7km/h 75% 0.00in /  0mm 0.0 W/m2
01:41 -1.0 °F /  -18.3 °C -7.0 °F /  -21.7 °C 30.54in /  1034.1hPa WNW 9.2mph /  14.8km/h 9.2mph /  14.8km/h 75% 0.00in /  0mm 0.0 W/m2
01:42 -1.0 °F /  -18.3 °C -7.0 °F /  -21.7 °C 30.54in /  1034.1hPa WNW 9.2mph /  14.8km/h 9.2mph /  14.8km/h 75% 0.00in /  0mm 0.0 W/m2
01:47 -0.9 °F /  -18.3 °C -6.9 °F /  -21.6 °C 30.54in /  1034.1hPa WNW 8.1mph /  13km/h 8.1mph /  13km/h 75% 0.00in /  0mm 0.0 W/m2
01:48 -0.9 °F /  -18.3 °C -6.6 °F /  -21.4 °C 30.54in /  1034.1hPa WNW 8.1mph /  13km/h 8.1mph /  13km/h 76% 0.00in /  0mm 0.0 W/m2
01:52 -0.9 °F /  -18.3 °C -6.9 °F /  -21.6 °C 30.54in /  1034.1hPa NW 8.1mph /  13km/h 8.1mph /  13km/h 75% 0.00in /  0mm 0.0 W/m2
01:54 -0.9 °F /  -18.3 °C -6.9 °F /  -21.6 °C 30.54in /  1034.1hPa WNW 9.2mph /  14.8km/h 9.2mph /  14.8km/h 75% 0.00in /  0mm 0.0 W/m2
01:59 -0.9 °F /  -18.3 °C -6.9 °F /  -21.6 °C 30.55in /  1034.4hPa NW 12.7mph /  20.4km/h 12.7mph /  20.4km/h 75% 0.00in /  0mm 0.0 W/m2
02:03 -0.8 °F /  -18.2 °C -6.8 °F /  -21.6 °C 30.55in /  1034.4hPa WNW 9.2mph /  14.8km/h 9.2mph /  14.8km/h 75% 0.00in /  0mm 0.0 W/m2
02:05 -0.8 °F /  -18.2 °C -6.8 °F /  -21.6 °C 30.55in /  1034.4hPa WNW 5.8mph /  9.3km/h 5.8mph /  9.3km/h 75% 0.00in /  0mm 0.0 W/m2
02:08 -0.8 °F /  -18.2 °C -6.8 °F /  -21.6 °C 30.55in /  1034.4hPa WNW 8.1mph /  13km/h 8.1mph /  13km/h 75% 0.00in /  0mm 0.0 W/m2
02:10 -0.8 °F /  -18.2 °C -6.8 °F /  -21.6 °C 30.55in /  1034.4hPa WNW 9.2mph /  14.8km/h 9.2mph /  14.8km/h 75% 0.00in /  0mm 0.0 W/m2
02:15 -0.8 °F /  -18.2 °C -6.8 °F /  -21.6 °C 30.55in /  1034.4hPa NW 6.0mph /  9.7km/h 6.0mph /  9.7km/h 75% 0.00in /  0mm 0.0 W/m2
02:16 -0.7 °F /  -18.2 °C -6.7 °F /  -21.5 °C 30.54in /  1034.1hPa NW 6.0mph /  9.7km/h 6.0mph /  9.7km/h 75% 0.00in /  0mm 0.0 W/m2
02:17 -0.8 °F /  -18.2 °C -6.8 °F /  -21.6 °C 30.54in /  1034.1hPa NW 5.8mph /  9.3km/h 5.8mph /  9.3km/h 75% 0.00in /  0mm 0.0 W/m2
02:19 -0.7 °F /  -18.2 °C -6.7 °F /  -21.5 °C 30.54in /  1034.1hPa WNW 8.1mph /  13km/h 8.1mph /  13km/h 75% 0.00in /  0mm 0.0 W/m2
02:24 -0.7 °F /  -18.2 °C -6.7 °F /  -21.5 °C 30.54in /  1034.1hPa WNW 6.9mph /  11.1km/h 6.9mph /  11.1km/h 75% 0.00in /  0mm 0.0 W/m2
02:29 -0.7 °F /  -18.2 °C -6.7 °F /  -21.5 °C 30.56in /  1034.8hPa WNW 9.2mph /  14.8km/h 9.2mph /  14.8km/h 75% 0.00in /  0mm 0.0 W/m2
02:31 -0.7 °F /  -18.2 °C -6.7 °F /  -21.5 °C 30.56in /  1034.8hPa NW 8.1mph /  13km/h 8.1mph /  13km/h 75% 0.00in /  0mm 0.0 W/m2
02:36 -0.6 °F /  -18.1 °C -6.6 °F /  -21.4 °C 30.56in /  1034.8hPa WNW 7.0mph /  11.3km/h 7.0mph /  11.3km/h 75% 0.00in /  0mm 0.0 W/m2
02:37 -0.6 °F /  -18.1 °C -6.6 °F /  -21.4 °C 30.56in /  1034.8hPa WNW 6.9mph /  11.1km/h 6.9mph /  11.1km/h 75% 0.00in /  0mm 0.0 W/m2
02:42 -0.5 °F /  -18.1 °C -6.5 °F /  -21.4 °C 30.56in /  1034.8hPa WNW 8.1mph /  13km/h 8.1mph /  13km/h 75% 0.00in /  0mm 0.0 W/m2
02:43 -0.5 °F /  -18.1 °C -6.5 °F /  -21.4 °C 30.56in /  1034.8hPa WNW 6.9mph /  11.1km/h 6.9mph /  11.1km/h 75% 0.00in /  0mm 0.0 W/m2
02:48 -0.6 °F /  -18.1 °C -6.6 °F /  -21.4 °C 30.56in /  1034.8hPa WNW 6.9mph /  11.1km/h 6.9mph /  11.1km/h 75% 0.00in /  0mm 0.0 W/m2
02:53 -0.6 °F /  -18.1 °C -6.4 °F /  -21.3 °C 30.56in /  1034.8hPa West 8.0mph /  12.9km/h 8.0mph /  12.9km/h 76% 0.00in /  0mm 0.0 W/m2
02:55 -0.6 °F /  -18.1 °C -6.4 °F /  -21.3 °C 30.56in /  1034.8hPa WNW 9.0mph /  14.5km/h 9.0mph /  14.5km/h 76% 0.00in /  0mm 0.0 W/m2
02:59 -0.6 °F /  -18.1 °C -6.4 °F /  -21.3 °C 30.56in /  1034.8hPa WSW 11.5mph /  18.5km/h 11.5mph /  18.5km/h 76% 0.00in /  0mm 0.0 W/m2
03:03 -0.6 °F /  -18.1 °C -6.4 °F /  -21.3 °C 30.57in /  1035.1hPa WNW 8.1mph /  13km/h 8.1mph /  13km/h 76% 0.00in /  0mm 0.0 W/m2
03:08 -0.6 °F /  -18.1 °C -6.4 °F /  -21.3 °C 30.57in /  1035.1hPa WNW 5.8mph /  9.3km/h 5.8mph /  9.3km/h 76% 0.00in /  0mm 0.0 W/m2
03:10 -0.5 °F /  -18.1 °C -6.3 °F /  -21.3 °C 30.57in /  1035.1hPa WNW 11.5mph /  18.5km/h 11.5mph /  18.5km/h 76% 0.00in /  0mm 0.0 W/m2
03:13 -0.5 °F /  -18.1 °C -6.3 °F /  -21.3 °C 30.58in /  1035.4hPa WNW 10.4mph /  16.7km/h 10.4mph /  16.7km/h 76% 0.00in /  0mm 0.0 W/m2
03:16 -0.4 °F /  -18 °C -6.2 °F /  -21.2 °C 30.58in /  1035.4hPa WNW 8.1mph /  13km/h 8.1mph /  13km/h 76% 0.00in /  0mm 0.0 W/m2
03:19 -0.4 °F /  -18 °C -6.2 °F /  -21.2 °C 30.58in /  1035.4hPa WNW 10.4mph /  16.7km/h 10.4mph /  16.7km/h 76% 0.00in /  0mm 0.0 W/m2
03:23 -0.3 °F /  -17.9 °C -6.1 °F /  -21.2 °C 30.57in /  1035.1hPa WNW 10.4mph /  16.7km/h 10.4mph /  16.7km/h 76% 0.00in /  0mm 0.0 W/m2
03:24 -0.3 °F /  -17.9 °C -6.1 °F /  -21.2 °C 30.57in /  1035.1hPa WNW 5.8mph /  9.3km/h 5.8mph /  9.3km/h 76% 0.00in /  0mm 0.0 W/m2
03:29 -0.3 °F /  -17.9 °C -6.1 °F /  -21.2 °C 30.58in /  1035.4hPa NW 9.2mph /  14.8km/h 9.2mph /  14.8km/h 76% 0.00in /  0mm 0.0 W/m2
03:31 -0.3 °F /  -17.9 °C -6.3 °F /  -21.3 °C 30.57in /  1035.1hPa WNW 10.4mph /  16.7km/h 10.4mph /  16.7km/h 75% 0.00in /  0mm 0.0 W/m2
03:35 -0.3 °F /  -17.9 °C -6.1 °F /  -21.2 °C 30.58in /  1035.4hPa WNW 11.5mph /  18.5km/h 11.5mph /  18.5km/h 76% 0.00in /  0mm 0.0 W/m2
03:36 -0.3 °F /  -17.9 °C -6.1 °F /  -21.2 °C 30.58in /  1035.4hPa WNW 6.9mph /  11.1km/h 6.9mph /  11.1km/h 76% 0.00in /  0mm 0.0 W/m2
03:41 -0.1 °F /  -17.8 °C -5.9 °F /  -21.1 °C 30.58in /  1035.4hPa WNW 6.9mph /  11.1km/h 6.9mph /  11.1km/h 76% 0.00in /  0mm 0.0 W/m2
03:46 -0.1 °F /  -17.8 °C -5.9 °F /  -21.1 °C 30.58in /  1035.4hPa WNW 8.1mph /  13km/h 8.1mph /  13km/h 76% 0.00in /  0mm 0.0 W/m2
03:47 0.0 °F /  -17.8 °C -5.8 °F /  -21 °C 30.58in /  1035.4hPa WNW 9.2mph /  14.8km/h 9.2mph /  14.8km/h 76% 0.00in /  0mm 0.0 W/m2
03:48 0.0 °F /  -17.8 °C -5.8 °F /  -21 °C 30.58in /  1035.4hPa WNW 8.1mph /  13km/h 8.1mph /  13km/h 76% 0.00in /  0mm 0.0 W/m2
03:53 0.0 °F /  -17.8 °C -5.8 °F /  -21 °C 30.58in /  1035.4hPa WNW 6.9mph /  11.1km/h 6.9mph /  11.1km/h 76% 0.00in /  0mm 0.0 W/m2
03:58 0.1 °F /  -17.7 °C -5.4 °F /  -20.8 °C 30.58in /  1035.4hPa WNW 5.8mph /  9.3km/h 5.8mph /  9.3km/h 77% 0.00in /  0mm 0.0 W/m2
04:01 0.1 °F /  -17.7 °C -5.4 °F /  -20.8 °C 30.57in /  1035.1hPa WNW 8.1mph /  13km/h 8.1mph /  13km/h 77% 0.00in /  0mm 0.0 W/m2
04:02 0.2 °F /  -17.7 °C -5.3 °F /  -20.7 °C 30.57in /  1035.1hPa NW 8.1mph /  13km/h 8.1mph /  13km/h 77% 0.00in /  0mm 0.0 W/m2
04:07 0.2 °F /  -17.7 °C -5.3 °F /  -20.7 °C 30.56in /  1034.8hPa NW 6.9mph /  11.1km/h 6.9mph /  11.1km/h 77% 0.00in /  0mm 0.0 W/m2
04:08 0.2 °F /  -17.7 °C -5.0 °F /  -20.6 °C 30.56in /  1034.8hPa NW 4.6mph /  7.4km/h 4.6mph /  7.4km/h 78% 0.00in /  0mm 0.0 W/m2
04:13 0.2 °F /  -17.7 °C -5.0 °F /  -20.6 °C 30.57in /  1035.1hPa NW 8.1mph /  13km/h 8.1mph /  13km/h 78% 0.00in /  0mm 0.0 W/m2
04:14 0.2 °F /  -17.7 °C -5.0 °F /  -20.6 °C 30.57in /  1035.1hPa NW 8.1mph /  13km/h 8.1mph /  13km/h 78% 0.00in /  0mm 0.0 W/m2
04:19 0.3 °F /  -17.6 °C -4.9 °F /  -20.5 °C 30.57in /  1035.1hPa WNW 5.8mph /  9.3km/h 5.8mph /  9.3km/h 78% 0.00in /  0mm 0.0 W/m2
04:24 0.3 °F /  -17.6 °C -4.7 °F /  -20.4 °C 30.57in /  1035.1hPa WNW 9.2mph /  14.8km/h 9.2mph /  14.8km/h 79% 0.00in /  0mm 0.0 W/m2
04:25 0.3 °F /  -17.6 °C -4.7 °F /  -20.4 °C 30.57in /  1035.1hPa WNW 6.9mph /  11.1km/h 6.9mph /  11.1km/h 79% 0.00in /  0mm 0.0 W/m2
04:30 0.2 °F /  -17.7 °C -4.8 °F /  -20.4 °C 30.56in /  1034.8hPa NW 8.1mph /  13km/h 8.1mph /  13km/h 79% 0.00in /  0mm 0.0 W/m2
04:31 0.2 °F /  -17.7 °C -4.8 °F /  -20.4 °C 30.56in /  1034.8hPa NW 7.0mph /  11.3km/h 7.0mph /  11.3km/h 79% 0.00in /  0mm 0.0 W/m2
04:36 0.2 °F /  -17.7 °C -4.5 °F /  -20.3 °C 30.55in /  1034.4hPa NW 8.1mph /  13km/h 8.1mph /  13km/h 80% 0.00in /  0mm 0.0 W/m2
04:37 0.2 °F /  -17.7 °C -4.5 °F /  -20.3 °C 30.55in /  1034.4hPa WNW 11.5mph /  18.5km/h 11.5mph /  18.5km/h 80% 0.00in /  0mm 0.0 W/m2
04:42 0.3 °F /  -17.6 °C -4.4 °F /  -20.2 °C 30.56in /  1034.8hPa NW 11.5mph /  18.5km/h 11.5mph /  18.5km/h 80% 0.00in /  0mm 0.0 W/m2
04:43 0.3 °F /  -17.6 °C -4.4 °F /  -20.2 °C 30.55in /  1034.4hPa NNW 11.0mph /  17.7km/h 11.0mph /  17.7km/h 80% 0.00in /  0mm 0.0 W/m2
04:47 0.2 °F /  -17.7 °C -4.5 °F /  -20.3 °C 30.55in /  1034.4hPa WNW 9.0mph /  14.5km/h 9.0mph /  14.5km/h 80% 0.00in /  0mm 0.0 W/m2
04:48 0.2 °F /  -17.7 °C -4.5 °F /  -20.3 °C 30.56in /  1034.8hPa NW 10.4mph /  16.7km/h 10.4mph /  16.7km/h 80% 0.00in /  0mm 0.0 W/m2
04:53 0.2 °F /  -17.7 °C -4.5 °F /  -20.3 °C 30.56in /  1034.8hPa NW 11.5mph /  18.5km/h 11.5mph /  18.5km/h 80% 0.00in /  0mm 0.0 W/m2
04:57 0.1 °F /  -17.7 °C -4.6 °F /  -20.3 °C 30.56in /  1034.8hPa NW 10.4mph /  16.7km/h 10.4mph /  16.7km/h 80% 0.00in /  0mm 0.0 W/m2
04:58 0.1 °F /  -17.7 °C -4.6 °F /  -20.3 °C 30.56in /  1034.8hPa NW 10.4mph /  16.7km/h 10.4mph /  16.7km/h 80% 0.00in /  0mm 0.0 W/m2
05:03 0.2 °F /  -17.7 °C -4.3 °F /  -20.2 °C 30.56in /  1034.8hPa NW 9.0mph /  14.5km/h 9.0mph /  14.5km/h 81% 0.00in /  0mm 0.0 W/m2
05:05 0.2 °F /  -17.7 °C -4.3 °F /  -20.2 °C 30.56in /  1034.8hPa NW 10.0mph /  16.1km/h 10.0mph /  16.1km/h 81% 0.00in /  0mm 0.0 W/m2
05:10 0.2 °F /  -17.7 °C -4.3 °F /  -20.2 °C 30.56in /  1034.8hPa NW 9.2mph /  14.8km/h 9.2mph /  14.8km/h 81% 0.00in /  0mm 0.0 W/m2
05:14 0.2 °F /  -17.7 °C -4.3 °F /  -20.2 °C 30.58in /  1035.4hPa NW 12.0mph /  19.3km/h 12.0mph /  19.3km/h 81% 0.00in /  0mm 0.0 W/m2
05:17 0.2 °F /  -17.7 °C -4.0 °F /  -20 °C 30.57in /  1035.1hPa NW 12.7mph /  20.4km/h 12.7mph /  20.4km/h 82% 0.00in /  0mm 0.0 W/m2
05:22 0.2 °F /  -17.7 °C -4.0 °F /  -20 °C 30.57in /  1035.1hPa NW 12.7mph /  20.4km/h 12.7mph /  20.4km/h 82% 0.00in /  0mm 0.0 W/m2
05:23 0.2 °F /  -17.7 °C -4.0 °F /  -20 °C 30.57in /  1035.1hPa NW 11.5mph /  18.5km/h 11.5mph /  18.5km/h 82% 0.00in /  0mm 0.0 W/m2
05:28 0.2 °F /  -17.7 °C -4.0 °F /  -20 °C 30.59in /  1035.8hPa NW 11.5mph /  18.5km/h 11.5mph /  18.5km/h 82% 0.00in /  0mm 0.0 W/m2
05:33 0.2 °F /  -17.7 °C -4.0 °F /  -20 °C 30.58in /  1035.4hPa NW 10.4mph /  16.7km/h 10.4mph /  16.7km/h 82% 0.00in /  0mm 0.0 W/m2
05:34 0.2 °F /  -17.7 °C -4.0 °F /  -20 °C 30.58in /  1035.4hPa NW 10.4mph /  16.7km/h 10.4mph /  16.7km/h 82% 0.00in /  0mm 0.0 W/m2
05:38 0.3 °F /  -17.6 °C -3.9 °F /  -19.9 °C 30.59in /  1035.8hPa NW 11.5mph /  18.5km/h 11.5mph /  18.5km/h 82% 0.00in /  0mm 0.0 W/m2
05:40 0.2 °F /  -17.7 °C -4.0 °F /  -20 °C 30.58in /  1035.4hPa NW 11.5mph /  18.5km/h 11.5mph /  18.5km/h 82% 0.00in /  0mm 0.0 W/m2
05:45 0.3 °F /  -17.6 °C -3.9 °F /  -19.9 °C 30.58in /  1035.4hPa NNW 12.7mph /  20.4km/h 12.7mph /  20.4km/h 82% 0.00in /  0mm 0.0 W/m2
05:50 0.3 °F /  -17.6 °C -3.9 °F /  -19.9 °C 30.58in /  1035.4hPa WNW 10.4mph /  16.7km/h 10.4mph /  16.7km/h 82% 0.00in /  0mm 0.0 W/m2
05:51 0.3 °F /  -17.6 °C -3.9 °F /  -19.9 °C 30.58in /  1035.4hPa WNW 12.7mph /  20.4km/h 12.7mph /  20.4km/h 82% 0.00in /  0mm 0.0 W/m2
05:55 0.4 °F /  -17.6 °C -3.8 °F /  -19.9 °C 30.57in /  1035.1hPa NW 11.5mph /  18.5km/h 11.5mph /  18.5km/h 82% 0.00in /  0mm 0.0 W/m2
06:00 0.3 °F /  -17.6 °C -3.9 °F /  -19.9 °C 30.54in /  1034.1hPa NW 5.8mph /  9.3km/h 5.8mph /  9.3km/h 82% 0.00in /  0mm 0.0 W/m2
06:02 0.3 °F /  -17.6 °C -3.9 °F /  -19.9 °C 30.54in /  1034.1hPa NW 5.8mph /  9.3km/h 5.8mph /  9.3km/h 82% 0.00in /  0mm 0.0 W/m2
06:04 0.3 °F /  -17.6 °C -3.9 °F /  -19.9 °C 30.54in /  1034.1hPa NW 4.0mph /  6.4km/h 4.0mph /  6.4km/h 82% 0.00in /  0mm 0.0 W/m2
06:07 0.3 °F /  -17.6 °C -3.9 °F /  -19.9 °C 30.54in /  1034.1hPa NW 6.9mph /  11.1km/h 6.9mph /  11.1km/h 82% 0.00in /  0mm 0.0 W/m2
06:10 0.2 °F /  -17.7 °C -4.3 °F /  -20.2 °C 30.55in /  1034.4hPa WNW 5.8mph /  9.3km/h 5.8mph /  9.3km/h 81% 0.00in /  0mm 0.0 W/m2
06:13 0.2 °F /  -17.7 °C -4.3 °F /  -20.2 °C 30.54in /  1034.1hPa NW 6.9mph /  11.1km/h 6.9mph /  11.1km/h 81% 0.00in /  0mm 0.0 W/m2
06:18 0.2 °F /  -17.7 °C -4.3 °F /  -20.2 °C 30.55in /  1034.4hPa WNW 3.0mph /  4.8km/h 3.0mph /  4.8km/h 81% 0.00in /  0mm 0.0 W/m2
06:19 0.2 °F /  -17.7 °C -4.3 °F /  -20.2 °C 30.55in /  1034.4hPa NW 3.0mph /  4.8km/h 3.0mph /  4.8km/h 81% 0.00in /  0mm 0.0 W/m2
06:24 0.2 °F /  -17.7 °C -4.3 °F /  -20.2 °C 30.56in /  1034.8hPa WNW 1.2mph /  1.9km/h   81% 0.00in /  0mm 0.0 W/m2
06:25 0.1 °F /  -17.7 °C -4.3 °F /  -20.2 °C 30.56in /  1034.8hPa Calm     81% 0.00in /  0mm 0.0 W/m2
06:29 0.1 °F /  -17.7 °C -4.3 °F /  -20.2 °C 30.56in /  1034.8hPa NW 3.5mph /  5.6km/h 3.5mph /  5.6km/h 81% 0.00in /  0mm 0.0 W/m2
06:30 0.1 °F /  -17.7 °C -4.3 °F /  -20.2 °C 30.57in /  1035.1hPa NW 3.5mph /  5.6km/h 3.5mph /  5.6km/h 81% 0.00in /  0mm 0.0 W/m2
06:34 0.1 °F /  -17.7 °C -4.3 °F /  -20.2 °C 30.57in /  1035.1hPa NW 2.3mph /  3.7km/h 2.3mph /  3.7km/h 81% 0.00in /  0mm 0.0 W/m2
06:36 0.0 °F /  -17.8 °C -4.4 °F /  -20.2 °C 30.57in /  1035.1hPa NW 3.0mph /  4.8km/h 3.0mph /  4.8km/h 81% 0.00in /  0mm 0.0 W/m2
06:39 0.0 °F /  -17.8 °C -4.4 °F /  -20.2 °C 30.57in /  1035.1hPa WNW 3.5mph /  5.6km/h 3.5mph /  5.6km/h 81% 0.00in /  0mm 0.0 W/m2
06:44 -0.1 °F /  -17.8 °C -4.5 °F /  -20.3 °C 30.57in /  1035.1hPa WNW 1.2mph /  1.9km/h 1.2mph /  1.9km/h 81% 0.00in /  0mm 0.0 W/m2
06:46 -0.1 °F /  -17.8 °C -4.5 °F /  -20.3 °C 30.58in /  1035.4hPa WNW 1.2mph /  1.9km/h 1.2mph /  1.9km/h 81% 0.00in /  0mm 0.0 W/m2
06:48 -0.2 °F /  -17.9 °C -4.6 °F /  -20.3 °C 30.58in /  1035.4hPa WNW 2.0mph /  3.2km/h 2.0mph /  3.2km/h 81% 0.00in /  0mm 0.0 W/m2
06:53 -0.3 °F /  -17.9 °C -4.7 °F /  -20.4 °C 30.57in /  1035.1hPa WNW 1.2mph /  1.9km/h   81% 0.00in /  0mm 0.0 W/m2
06:56 -0.4 °F /  -18 °C -4.8 °F /  -20.4 °C 30.57in /  1035.1hPa WNW 1.2mph /  1.9km/h   81% 0.00in /  0mm 0.0 W/m2
07:02 -0.5 °F /  -18.1 °C -4.9 °F /  -20.5 °C 30.58in /  1035.4hPa WNW 2.3mph /  3.7km/h 2.3mph /  3.7km/h 81% 0.00in /  0mm 0.0 W/m2
07:07 -0.7 °F /  -18.2 °C -5.1 °F /  -20.6 °C 30.58in /  1035.4hPa WNW 1.0mph /  1.6km/h 1.0mph /  1.6km/h 81% 0.00in /  0mm 0.0 W/m2
07:08 -0.7 °F /  -18.2 °C -5.1 °F /  -20.6 °C 30.58in /  1035.4hPa WNW 2.3mph /  3.7km/h 2.3mph /  3.7km/h 81% 0.00in /  0mm 0.0 W/m2
07:13 -0.8 °F /  -18.2 °C -5.2 °F /  -20.7 °C 30.58in /  1035.4hPa WNW 2.3mph /  3.7km/h 2.3mph /  3.7km/h 81% 0.00in /  0mm 0.0 W/m2
07:14 -0.8 °F /  -18.2 °C -5.2 °F /  -20.7 °C 30.58in /  1035.4hPa WNW 1.2mph /  1.9km/h 1.2mph /  1.9km/h 81% 0.00in /  0mm 0.0 W/m2
07:16 -0.8 °F /  -18.2 °C -5.2 °F /  -20.7 °C 30.58in /  1035.4hPa WNW 3.0mph /  4.8km/h 3.0mph /  4.8km/h 81% 0.00in /  0mm 0.0 W/m2
07:20 -0.9 °F /  -18.3 °C -5.3 °F /  -20.7 °C 30.59in /  1035.8hPa WNW 3.5mph /  5.6km/h 3.5mph /  5.6km/h 81% 0.00in /  0mm 0.0 W/m2
07:25 -0.9 °F /  -18.3 °C -5.3 °F /  -20.7 °C 30.59in /  1035.8hPa WNW 3.5mph /  5.6km/h 3.5mph /  5.6km/h 81% 0.00in /  0mm 5.0 W/m2
07:30 -1.0 °F /  -18.3 °C -5.4 °F /  -20.8 °C 30.59in /  1035.8hPa WNW 2.3mph /  3.7km/h 2.3mph /  3.7km/h 81% 0.00in /  0mm 7.0 W/m2
07:32 -1.0 °F /  -18.3 °C -5.4 °F /  -20.8 °C 30.59in /  1035.8hPa WNW 2.3mph /  3.7km/h 2.3mph /  3.7km/h 81% 0.00in /  0mm 9.0 W/m2
07:36 -1.0 °F /  -18.3 °C -5.4 °F /  -20.8 °C 30.59in /  1035.8hPa WNW 1.2mph /  1.9km/h 1.2mph /  1.9km/h 81% 0.00in /  0mm 16.0 W/m2
07:38 -1.0 °F /  -18.3 °C -5.4 °F /  -20.8 °C 30.59in /  1035.8hPa Calm     81% 0.00in /  0mm 19.0 W/m2
07:43 -1.0 °F /  -18.3 °C -5.4 °F /  -20.8 °C 30.59in /  1035.8hPa Calm     81% 0.00in /  0mm 25.0 W/m2
07:48 -1.0 °F /  -18.3 °C -5.4 °F /  -20.8 °C 30.59in /  1035.8hPa WNW 1.2mph /  1.9km/h   81% 0.00in /  0mm 32.0 W/m2
07:49 -1.0 °F /  -18.3 °C -5.4 °F /  -20.8 °C 30.59in /  1035.8hPa Calm     81% 0.00in /  0mm 33.0 W/m2
07:54 -1.0 °F /  -18.3 °C -5.4 °F /  -20.8 °C 30.59in /  1035.8hPa Calm     81% 0.00in /  0mm 42.0 W/m2
07:59 -0.9 °F /  -18.3 °C -5.3 °F /  -20.7 °C 30.59in /  1035.8hPa WNW 2.3mph /  3.7km/h 2.3mph /  3.7km/h 81% 0.00in /  0mm 54.0 W/m2
08:01 -0.8 °F /  -18.2 °C -5.2 °F /  -20.7 °C 30.59in /  1035.8hPa Calm     81% 0.00in /  0mm 60.0 W/m2
08:02 -0.8 °F /  -18.2 °C -5.2 °F /  -20.7 °C 30.59in /  1035.8hPa Calm     81% 0.00in /  0mm 62.0 W/m2
08:07 -0.7 °F /  -18.2 °C -5.1 °F /  -20.6 °C 30.59in /  1035.8hPa Calm     81% 0.00in /  0mm 70.0 W/m2
08:12 -0.6 °F /  -18.1 °C -5.0 °F /  -20.6 °C 30.60in /  1036.1hPa Calm     81% 0.00in /  0mm 81.0 W/m2
08:14 -0.5 °F /  -18.1 °C -4.9 °F /  -20.5 °C 30.60in /  1036.1hPa WNW 2.3mph /  3.7km/h 2.3mph /  3.7km/h 81% 0.00in /  0mm 88.0 W/m2
08:17 -0.4 °F /  -18 °C -4.8 °F /  -20.4 °C 30.60in /  1036.1hPa WNW 5.8mph /  9.3km/h 5.8mph /  9.3km/h 81% 0.00in /  0mm 98.0 W/m2
08:21 -0.3 °F /  -17.9 °C -4.7 °F /  -20.4 °C 30.60in /  1036.1hPa WNW 3.5mph /  5.6km/h 3.5mph /  5.6km/h 81% 0.00in /  0mm 107.0 W/m2
08:23 -0.3 °F /  -17.9 °C -4.7 °F /  -20.4 °C 30.59in /  1035.8hPa WNW 1.0mph /  1.6km/h   81% 0.00in /  0mm 111.0 W/m2
08:28 -0.1 °F /  -17.8 °C -4.8 °F /  -20.4 °C 30.60in /  1036.1hPa WNW 3.5mph /  5.6km/h 3.5mph /  5.6km/h 80% 0.00in /  0mm 127.0 W/m2
08:29 -0.1 °F /  -17.8 °C -4.8 °F /  -20.4 °C 30.60in /  1036.1hPa Calm   0.1mph /  0.2km/h 80% 0.00in /  0mm 132.0 W/m2
08:34 0.0 °F /  -17.8 °C -4.7 °F /  -20.4 °C 30.60in /  1036.1hPa WNW 2.3mph /  3.7km/h   80% 0.00in /  0mm 148.0 W/m2
08:40 0.2 °F /  -17.7 °C -4.8 °F /  -20.4 °C 30.60in /  1036.1hPa WNW 3.5mph /  5.6km/h 3.5mph /  5.6km/h 79% 0.00in /  0mm 165.0 W/m2
08:45 0.4 °F /  -17.6 °C -4.6 °F /  -20.3 °C 30.60in /  1036.1hPa WNW 3.5mph /  5.6km/h 3.5mph /  5.6km/h 79% 0.00in /  0mm 197.0 W/m2
08:46 0.4 °F /  -17.6 °C -4.6 °F /  -20.3 °C 30.60in /  1036.1hPa WNW 4.6mph /  7.4km/h 4.6mph /  7.4km/h 79% 0.00in /  0mm 202.0 W/m2
08:49 0.4 °F /  -17.6 °C -4.6 °F /  -20.3 °C 30.60in /  1036.1hPa WNW 6.9mph /  11.1km/h 6.9mph /  11.1km/h 79% 0.00in /  0mm 221.0 W/m2
08:52 0.6 °F /  -17.4 °C -4.6 °F /  -20.3 °C 30.60in /  1036.1hPa WNW 5.8mph /  9.3km/h 5.8mph /  9.3km/h 78% 0.00in /  0mm 243.0 W/m2
08:57 0.8 °F /  -17.3 °C -4.5 °F /  -20.3 °C 30.60in /  1036.1hPa Calm     78% 0.00in /  0mm 290.0 W/m2
09:02 1.0 °F /  -17.2 °C -4.3 °F /  -20.2 °C 30.60in /  1036.1hPa West 5.8mph /  9.3km/h 5.8mph /  9.3km/h 78% 0.00in /  0mm 322.0 W/m2
09:04 1.1 °F /  -17.2 °C -4.2 °F /  -20.1 °C 30.60in /  1036.1hPa West 5.8mph /  9.3km/h 5.8mph /  9.3km/h 78% 0.00in /  0mm 302.0 W/m2
09:08 1.4 °F /  -17 °C -3.9 °F /  -19.9 °C 30.60in /  1036.1hPa West 6.9mph /  11.1km/h 6.9mph /  11.1km/h 78% 0.00in /  0mm 287.0 W/m2
09:13 1.5 °F /  -16.9 °C -4.0 °F /  -20 °C 30.61in /  1036.5hPa WNW 6.9mph /  11.1km/h 6.9mph /  11.1km/h 77% 0.00in /  0mm 288.0 W/m2
09:16 1.6 °F /  -16.9 °C -3.9 °F /  -19.9 °C 30.61in /  1036.5hPa WNW 6.9mph /  11.1km/h 6.9mph /  11.1km/h 77% 0.00in /  0mm 301.0 W/m2
09:17 1.6 °F /  -16.9 °C -4.2 °F /  -20.1 °C 30.61in /  1036.5hPa WNW 9.2mph /  14.8km/h 9.2mph /  14.8km/h 76% 0.00in /  0mm 304.0 W/m2
09:22 1.6 °F /  -16.9 °C -4.2 °F /  -20.1 °C 30.61in /  1036.5hPa WNW 10.4mph /  16.7km/h 10.4mph /  16.7km/h 76% 0.00in /  0mm 301.0 W/m2
09:27 1.6 °F /  -16.9 °C -4.2 °F /  -20.1 °C 30.61in /  1036.5hPa West 8.1mph /  13km/h 8.1mph /  13km/h 76% 0.00in /  0mm 301.0 W/m2
09:29 1.6 °F /  -16.9 °C -4.2 °F /  -20.1 °C 30.61in /  1036.5hPa WNW 9.2mph /  14.8km/h 9.2mph /  14.8km/h 76% 0.00in /  0mm 264.0 W/m2
09:32 1.7 °F /  -16.8 °C -4.1 °F /  -20.1 °C 30.62in /  1036.8hPa WNW 9.2mph /  14.8km/h 9.2mph /  14.8km/h 76% 0.00in /  0mm 318.0 W/m2
09:35 1.7 °F /  -16.8 °C -4.1 °F /  -20.1 °C 30.62in /  1036.8hPa WNW 5.0mph /  8km/h 5.0mph /  8km/h 76% 0.00in /  0mm 316.0 W/m2
09:40 1.8 °F /  -16.8 °C -4.3 °F /  -20.2 °C 30.62in /  1036.8hPa WNW 5.8mph /  9.3km/h 5.8mph /  9.3km/h 75% 0.00in /  0mm 288.0 W/m2
09:42 1.8 °F /  -16.8 °C -4.3 °F /  -20.2 °C 30.62in /  1036.8hPa NW 8.1mph /  13km/h 8.1mph /  13km/h 75% 0.00in /  0mm 257.0 W/m2
09:45 1.8 °F /  -16.8 °C -4.3 °F /  -20.2 °C 30.62in /  1036.8hPa WNW 9.2mph /  14.8km/h 9.2mph /  14.8km/h 75% 0.00in /  0mm 237.0 W/m2
09:48 1.8 °F /  -16.8 °C -4.3 °F /  -20.2 °C 30.62in /  1036.8hPa WNW 10.4mph /  16.7km/h 10.4mph /  16.7km/h 75% 0.00in /  0mm 223.0 W/m2
09:53 1.8 °F /  -16.8 °C -4.3 °F /  -20.2 °C 30.63in /  1037.1hPa WNW 4.6mph /  7.4km/h 4.6mph /  7.4km/h 75% 0.00in /  0mm 179.0 W/m2
09:54 1.8 °F /  -16.8 °C -4.0 °F /  -20 °C 30.63in /  1037.1hPa WNW 5.8mph /  9.3km/h 5.8mph /  9.3km/h 76% 0.00in /  0mm 183.0 W/m2
09:57 1.8 °F /  -16.8 °C -4.0 °F /  -20 °C 30.63in /  1037.1hPa WNW 8.1mph /  13km/h 8.1mph /  13km/h 76% 0.00in /  0mm 185.0 W/m2
09:59 1.8 °F /  -16.8 °C -4.0 °F /  -20 °C 30.63in /  1037.1hPa WNW 7.0mph /  11.3km/h 7.0mph /  11.3km/h 76% 0.00in /  0mm 211.0 W/m2
10:04 1.9 °F /  -16.7 °C -3.9 °F /  -19.9 °C 30.63in /  1037.1hPa WNW 10.4mph /  16.7km/h 10.4mph /  16.7km/h 76% 0.00in /  0mm 204.0 W/m2
10:06 1.9 °F /  -16.7 °C -3.9 °F /  -19.9 °C 30.63in /  1037.1hPa West 10.4mph /  16.7km/h 10.4mph /  16.7km/h 76% 0.00in /  0mm 204.0 W/m2
10:09 2.0 °F /  -16.7 °C -3.8 °F /  -19.9 °C 30.63in /  1037.1hPa WNW 8.1mph /  13km/h 8.1mph /  13km/h 76% 0.00in /  0mm 204.0 W/m2
10:12 2.0 °F /  -16.7 °C -3.8 °F /  -19.9 °C 30.64in /  1037.5hPa WNW 10.4mph /  16.7km/h 10.4mph /  16.7km/h 76% 0.00in /  0mm 209.0 W/m2
10:17 2.0 °F /  -16.7 °C -3.8 °F /  -19.9 °C 30.63in /  1037.1hPa WNW 8.1mph /  13km/h 8.1mph /  13km/h 76% 0.00in /  0mm 202.0 W/m2
10:22 2.2 °F /  -16.6 °C -3.6 °F /  -19.8 °C 30.63in /  1037.1hPa WNW 8.1mph /  13km/h 8.1mph /  13km/h 76% 0.00in /  0mm 195.0 W/m2
10:25 2.3 °F /  -16.5 °C -3.5 °F /  -19.7 °C 30.63in /  1037.1hPa WNW 8.1mph /  13km/h 8.1mph /  13km/h 76% 0.00in /  0mm 211.0 W/m2
10:27 2.3 °F /  -16.5 °C -3.5 °F /  -19.7 °C 30.63in /  1037.1hPa WNW 6.9mph /  11.1km/h 6.9mph /  11.1km/h 76% 0.00in /  0mm 225.0 W/m2
10:32 2.7 °F /  -16.3 °C -3.1 °F /  -19.5 °C 30.63in /  1037.1hPa West 4.6mph /  7.4km/h 4.6mph /  7.4km/h 76% 0.00in /  0mm 251.0 W/m2
10:34 2.8 °F /  -16.2 °C -3.1 °F /  -19.5 °C 30.63in /  1037.1hPa WNW 6.9mph /  11.1km/h 6.9mph /  11.1km/h 76% 0.00in /  0mm 234.0 W/m2
10:39 2.9 °F /  -16.2 °C -3.0 °F /  -19.4 °C 30.63in /  1037.1hPa WSW 5.8mph /  9.3km/h 5.8mph /  9.3km/h 76% 0.00in /  0mm 248.0 W/m2
10:42 2.9 °F /  -16.2 °C -3.0 °F /  -19.4 °C 30.63in /  1037.1hPa West 6.9mph /  11.1km/h 6.9mph /  11.1km/h 76% 0.00in /  0mm 251.0 W/m2
10:44 3.1 °F /  -16.1 °C -2.8 °F /  -19.3 °C 30.63in /  1037.1hPa WNW 6.9mph /  11.1km/h 6.9mph /  11.1km/h 76% 0.00in /  0mm 383.0 W/m2
10:49 3.6 °F /  -15.8 °C -2.3 °F /  -19.1 °C 30.63in /  1037.1hPa WNW 6.0mph /  9.7km/h 6.0mph /  9.7km/h 76% 0.00in /  0mm 397.0 W/m2
10:50 3.7 °F /  -15.7 °C -2.2 °F /  -19 °C 30.63in /  1037.1hPa WNW 8.1mph /  13km/h 8.1mph /  13km/h 76% 0.00in /  0mm 336.0 W/m2
10:55 4.1 °F /  -15.5 °C -1.8 °F /  -18.8 °C 30.63in /  1037.1hPa WNW 4.6mph /  7.4km/h 4.6mph /  7.4km/h 76% 0.00in /  0mm 455.0 W/m2
10:56 4.1 °F /  -15.5 °C -1.8 °F /  -18.8 °C 30.63in /  1037.1hPa West 4.6mph /  7.4km/h 4.6mph /  7.4km/h 76% 0.00in /  0mm 455.0 W/m2
11:01 4.4 °F /  -15.3 °C -1.5 °F /  -18.6 °C 30.63in /  1037.1hPa West 6.9mph /  11.1km/h 6.9mph /  11.1km/h 76% 0.00in /  0mm 413.0 W/m2
11:02 4.4 °F /  -15.3 °C -1.5 °F /  -18.6 °C 30.63in /  1037.1hPa West 4.6mph /  7.4km/h 4.6mph /  7.4km/h 76% 0.00in /  0mm 413.0 W/m2
11:06 4.6 °F /  -15.2 °C -1.6 °F /  -18.7 °C 30.63in /  1037.1hPa WSW 8.1mph /  13km/h 8.1mph /  13km/h 75% 0.00in /  0mm 343.0 W/m2
11:07 4.6 °F /  -15.2 °C -1.6 °F /  -18.7 °C 30.63in /  1037.1hPa WNW 3.5mph /  5.6km/h 3.5mph /  5.6km/h 75% 0.00in /  0mm 343.0 W/m2
11:12 4.8 °F /  -15.1 °C -1.4 °F /  -18.6 °C 30.62in /  1036.8hPa West 5.8mph /  9.3km/h 5.8mph /  9.3km/h 75% 0.00in /  0mm 417.0 W/m2
11:17 5.3 °F /  -14.8 °C -0.6 °F /  -18.1 °C 30.62in /  1036.8hPa West 6.9mph /  11.1km/h 6.9mph /  11.1km/h 76% 0.00in /  0mm 411.0 W/m2
11:18 5.3 °F /  -14.8 °C -0.9 °F /  -18.3 °C 30.62in /  1036.8hPa West 10.4mph /  16.7km/h 10.4mph /  16.7km/h 75% 0.00in /  0mm 411.0 W/m2
11:23 5.5 °F /  -14.7 °C -0.7 °F /  -18.2 °C 30.62in /  1036.8hPa WNW 6.0mph /  9.7km/h 6.0mph /  9.7km/h 75% 0.00in /  0mm 446.0 W/m2
11:25 5.5 °F /  -14.7 °C -0.7 °F /  -18.2 °C 30.62in /  1036.8hPa NW 9.2mph /  14.8km/h 9.2mph /  14.8km/h 75% 0.00in /  0mm 425.0 W/m2
11:29 5.3 °F /  -14.8 °C -1.2 °F /  -18.4 °C 30.62in /  1036.8hPa NW 9.2mph /  14.8km/h 9.2mph /  14.8km/h 74% 0.00in /  0mm 473.0 W/m2
11:34 5.3 °F /  -14.8 °C -0.9 °F /  -18.3 °C 30.62in /  1036.8hPa WNW 10.4mph /  16.7km/h 10.4mph /  16.7km/h 75% 0.00in /  0mm 346.0 W/m2
11:35 5.3 °F /  -14.8 °C -0.9 °F /  -18.3 °C 30.62in /  1036.8hPa WNW 9.2mph /  14.8km/h 9.2mph /  14.8km/h 75% 0.00in /  0mm 346.0 W/m2
11:40 5.4 °F /  -14.8 °C -0.8 °F /  -18.2 °C 30.62in /  1036.8hPa WNW 9.2mph /  14.8km/h 9.2mph /  14.8km/h 75% 0.00in /  0mm 475.0 W/m2
11:41 5.5 °F /  -14.7 °C -0.7 °F /  -18.2 °C 30.62in /  1036.8hPa NW 6.9mph /  11.1km/h 6.9mph /  11.1km/h 75% 0.00in /  0mm 475.0 W/m2
11:45 5.8 °F /  -14.6 °C -0.4 °F /  -18 °C 30.61in /  1036.5hPa WNW 6.9mph /  11.1km/h 6.9mph /  11.1km/h 75% 0.00in /  0mm 478.0 W/m2
11:50 6.0 °F /  -14.4 °C -0.2 °F /  -17.9 °C 30.61in /  1036.5hPa NW 8.1mph /  13km/h 8.1mph /  13km/h 75% 0.00in /  0mm 506.0 W/m2
11:51 6.0 °F /  -14.4 °C -0.2 °F /  -17.9 °C 30.61in /  1036.5hPa WNW 8.1mph /  13km/h 8.1mph /  13km/h 75% 0.00in /  0mm 510.0 W/m2
11:56 6.2 °F /  -14.3 °C 0.0 °F /  -17.8 °C 30.61in /  1036.5hPa WNW 10.4mph /  16.7km/h 10.4mph /  16.7km/h 75% 0.00in /  0mm 482.0 W/m2
11:58 6.2 °F /  -14.3 °C 0.0 °F /  -17.8 °C 30.61in /  1036.5hPa WNW 9.2mph /  14.8km/h 9.2mph /  14.8km/h 75% 0.00in /  0mm 506.0 W/m2
11:59 6.1 °F /  -14.4 °C -0.4 °F /  -18 °C 30.61in /  1036.5hPa WNW 9.2mph /  14.8km/h 9.2mph /  14.8km/h 74% 0.00in /  0mm 506.0 W/m2
12:04 5.9 °F /  -14.5 °C -0.6 °F /  -18.1 °C 30.61in /  1036.5hPa NW 8.1mph /  13km/h 8.1mph /  13km/h 74% 0.00in /  0mm 413.0 W/m2
12:05 5.9 °F /  -14.5 °C -0.6 °F /  -18.1 °C 30.61in /  1036.5hPa NW 4.6mph /  7.4km/h 4.6mph /  7.4km/h 74% 0.00in /  0mm 413.0 W/m2
12:09 5.9 °F /  -14.5 °C -0.3 °F /  -17.9 °C 30.61in /  1036.5hPa WNW 4.6mph /  7.4km/h 4.6mph /  7.4km/h 75% 0.00in /  0mm 417.0 W/m2
12:14 6.0 °F /  -14.4 °C -0.2 °F /  -17.9 °C 30.61in /  1036.5hPa Calm     75% 0.00in /  0mm 422.0 W/m2
12:16 6.0 °F /  -14.4 °C -0.2 °F /  -17.9 °C 30.61in /  1036.5hPa WNW 4.6mph /  7.4km/h 4.6mph /  7.4km/h 75% 0.00in /  0mm 262.0 W/m2
12:21 5.8 °F /  -14.6 °C -0.7 °F /  -18.2 °C 30.61in /  1036.5hPa WNW 8.1mph /  13km/h 8.1mph /  13km/h 74% 0.00in /  0mm 174.0 W/m2
12:22 5.7 °F /  -14.6 °C -0.8 °F /  -18.2 °C 30.61in /  1036.5hPa WNW 9.2mph /  14.8km/h 9.2mph /  14.8km/h 74% 0.00in /  0mm 174.0 W/m2
12:24 5.5 °F /  -14.7 °C -1.0 °F /  -18.3 °C 30.61in /  1036.5hPa WNW 9.2mph /  14.8km/h 9.2mph /  14.8km/h 74% 0.00in /  0mm 281.0 W/m2
12:27 5.4 °F /  -14.8 °C -0.8 °F /  -18.2 °C 30.61in /  1036.5hPa NW 9.2mph /  14.8km/h 9.2mph /  14.8km/h 75% 0.00in /  0mm 494.0 W/m2
12:29 5.6 °F /  -14.7 °C -0.3 °F /  -17.9 °C 30.61in /  1036.5hPa NW 9.2mph /  14.8km/h 9.2mph /  14.8km/h 76% 0.00in /  0mm 490.0 W/m2
12:34 5.8 °F /  -14.6 °C -0.1 °F /  -17.8 °C 30.61in /  1036.5hPa NW 6.9mph /  11.1km/h 6.9mph /  11.1km/h 76% 0.00in /  0mm 483.0 W/m2
12:39 6.1 °F /  -14.4 °C 0.2 °F /  -17.7 °C 30.60in /  1036.1hPa West 10.4mph /  16.7km/h 10.4mph /  16.7km/h 76% 0.00in /  0mm 380.0 W/m2
12:40 6.1 °F /  -14.4 °C 0.2 °F /  -17.7 °C 30.61in /  1036.5hPa WNW 10.4mph /  16.7km/h 10.4mph /  16.7km/h 76% 0.00in /  0mm 380.0 W/m2
12:45 6.0 °F /  -14.4 °C 0.1 °F /  -17.7 °C 30.61in /  1036.5hPa NW 8.1mph /  13km/h 8.1mph /  13km/h 76% 0.00in /  0mm 381.0 W/m2
12:46 6.0 °F /  -14.4 °C 0.1 °F /  -17.7 °C 30.61in /  1036.5hPa WNW 6.9mph /  11.1km/h 6.9mph /  11.1km/h 76% 0.00in /  0mm 376.0 W/m2
12:50 5.9 °F /  -14.5 °C -0.3 °F /  -17.9 °C 30.61in /  1036.5hPa WNW 9.2mph /  14.8km/h 9.2mph /  14.8km/h 75% 0.00in /  0mm 338.0 W/m2
12:55 5.7 °F /  -14.6 °C -0.5 °F /  -18.1 °C 30.61in /  1036.5hPa NW 9.2mph /  14.8km/h 9.2mph /  14.8km/h 75% 0.00in /  0mm 362.0 W/m2
12:56 5.7 °F /  -14.6 °C -0.5 °F /  -18.1 °C 30.61in /  1036.5hPa NW 9.2mph /  14.8km/h 9.2mph /  14.8km/h 75% 0.00in /  0mm 362.0 W/m2
12:57 5.6 °F /  -14.7 °C -0.6 °F /  -18.1 °C 30.61in /  1036.5hPa WNW 9.2mph /  14.8km/h 9.2mph /  14.8km/h 75% 0.00in /  0mm 383.0 W/m2
13:01 5.6 °F /  -14.7 °C -0.6 °F /  -18.1 °C 30.61in /  1036.5hPa WNW 5.8mph /  9.3km/h 5.8mph /  9.3km/h 75% 0.00in /  0mm 334.0 W/m2
13:02 5.7 °F /  -14.6 °C -0.5 °F /  -18.1 °C 30.61in /  1036.5hPa WNW 5.8mph /  9.3km/h 5.8mph /  9.3km/h 75% 0.00in /  0mm 350.0 W/m2
13:06 5.8 °F /  -14.6 °C -0.4 °F /  -18 °C 30.61in /  1036.5hPa WNW 5.8mph /  9.3km/h 5.8mph /  9.3km/h 75% 0.00in /  0mm 341.0 W/m2
13:07 5.8 °F /  -14.6 °C -0.4 °F /  -18 °C 30.61in /  1036.5hPa WNW 8.1mph /  13km/h 8.1mph /  13km/h 75% 0.00in /  0mm 341.0 W/m2
13:08 5.8 °F /  -14.6 °C -0.4 °F /  -18 °C 30.61in /  1036.5hPa WNW 4.6mph /  7.4km/h 4.6mph /  7.4km/h 75% 0.00in /  0mm 341.0 W/m2
13:12 5.9 °F /  -14.5 °C -0.3 °F /  -17.9 °C 30.61in /  1036.5hPa West 9.2mph /  14.8km/h 9.2mph /  14.8km/h 75% 0.00in /  0mm 383.0 W/m2
13:17 6.1 °F /  -14.4 °C -0.1 °F /  -17.8 °C 30.61in /  1036.5hPa WNW 6.9mph /  11.1km/h 6.9mph /  11.1km/h 75% 0.00in /  0mm 403.0 W/m2
13:22 6.4 °F /  -14.2 °C 0.2 °F /  -17.7 °C 30.61in /  1036.5hPa NW 5.8mph /  9.3km/h 5.8mph /  9.3km/h 75% 0.00in /  0mm 385.0 W/m2
13:25 6.5 °F /  -14.2 °C 0.0 °F /  -17.8 °C 30.61in /  1036.5hPa WNW 9.2mph /  14.8km/h 9.2mph /  14.8km/h 74% 0.00in /  0mm 383.0 W/m2
13:28 6.6 °F /  -14.1 °C 0.1 °F /  -17.7 °C 30.61in /  1036.5hPa WNW 3.5mph /  5.6km/h 3.5mph /  5.6km/h 74% 0.00in /  0mm 373.0 W/m2
13:31 6.7 °F /  -14.1 °C 0.5 °F /  -17.5 °C 30.60in /  1036.1hPa West 9.2mph /  14.8km/h 9.2mph /  14.8km/h 75% 0.00in /  0mm 373.0 W/m2
13:36 6.9 °F /  -13.9 °C 0.4 °F /  -17.6 °C 30.61in /  1036.5hPa WNW 11.5mph /  18.5km/h 11.5mph /  18.5km/h 74% 0.00in /  0mm 369.0 W/m2
13:37 6.9 °F /  -13.9 °C 0.4 °F /  -17.6 °C 30.60in /  1036.1hPa West 11.5mph /  18.5km/h 11.5mph /  18.5km/h 74% 0.00in /  0mm 369.0 W/m2
13:38 6.9 °F /  -13.9 °C 0.4 °F /  -17.6 °C 30.60in /  1036.1hPa NW 11.5mph /  18.5km/h 11.5mph /  18.5km/h 74% 0.00in /  0mm 366.0 W/m2
13:42 6.9 °F /  -13.9 °C 0.4 °F /  -17.6 °C 30.60in /  1036.1hPa WNW 10.4mph /  16.7km/h 10.4mph /  16.7km/h 74% 0.00in /  0mm 362.0 W/m2
13:47 7.0 °F /  -13.9 °C 0.5 °F /  -17.5 °C 30.60in /  1036.1hPa WNW 8.1mph /  13km/h 8.1mph /  13km/h 74% 0.00in /  0mm 360.0 W/m2
13:52 7.4 °F /  -13.7 °C 0.8 °F /  -17.3 °C 30.60in /  1036.1hPa WNW 9.2mph /  14.8km/h 9.2mph /  14.8km/h 74% 0.00in /  0mm 357.0 W/m2
13:54 7.5 °F /  -13.6 °C 0.7 °F /  -17.4 °C 30.60in /  1036.1hPa West 10.4mph /  16.7km/h 10.4mph /  16.7km/h 73% 0.00in /  0mm 353.0 W/m2
13:59 7.5 °F /  -13.6 °C 0.4 °F /  -17.6 °C 30.60in /  1036.1hPa WNW 8.1mph /  13km/h 8.1mph /  13km/h 72% 0.00in /  0mm 339.0 W/m2
14:00 7.6 °F /  -13.6 °C 0.5 °F /  -17.5 °C 30.60in /  1036.1hPa NW 9.0mph /  14.5km/h 9.0mph /  14.5km/h 72% 0.00in /  0mm 334.0 W/m2
14:02 7.6 °F /  -13.6 °C 0.7 °F /  -17.4 °C 30.60in /  1036.1hPa NW 11.5mph /  18.5km/h 11.5mph /  18.5km/h 73% 0.00in /  0mm 329.0 W/m2
14:05 7.6 °F /  -13.6 °C 0.5 °F /  -17.5 °C 30.60in /  1036.1hPa WNW 10.4mph /  16.7km/h 10.4mph /  16.7km/h 72% 0.00in /  0mm 325.0 W/m2
14:10 7.8 °F /  -13.4 °C 0.6 °F /  -17.4 °C 30.60in /  1036.1hPa NW 11.5mph /  18.5km/h 11.5mph /  18.5km/h 72% 0.00in /  0mm 322.0 W/m2
14:11 7.8 °F /  -13.4 °C 0.6 °F /  -17.4 °C 30.60in /  1036.1hPa West 11.5mph /  18.5km/h 11.5mph /  18.5km/h 72% 0.00in /  0mm 320.0 W/m2
14:16 8.0 °F /  -13.3 °C 0.8 °F /  -17.3 °C 30.61in /  1036.5hPa West 11.5mph /  18.5km/h 11.5mph /  18.5km/h 72% 0.00in /  0mm 311.0 W/m2
14:21 8.2 °F /  -13.2 °C 1.0 °F /  -17.2 °C 30.60in /  1036.1hPa WNW 11.5mph /  18.5km/h 11.5mph /  18.5km/h 72% 0.00in /  0mm 302.0 W/m2
14:26 8.3 °F /  -13.2 °C 0.8 °F /  -17.3 °C 30.61in /  1036.5hPa WNW 11.5mph /  18.5km/h 11.5mph /  18.5km/h 71% 0.00in /  0mm 290.0 W/m2
14:28 8.4 °F /  -13.1 °C 0.9 °F /  -17.3 °C 30.61in /  1036.5hPa WNW 10.0mph /  16.1km/h 10.0mph /  16.1km/h 71% 0.00in /  0mm 287.0 W/m2
14:34 8.6 °F /  -13 °C 1.1 °F /  -17.2 °C 30.61in /  1036.5hPa West 8.1mph /  13km/h 8.1mph /  13km/h 71% 0.00in /  0mm 272.0 W/m2
14:35 8.7 °F /  -12.9 °C 1.2 °F /  -17.1 °C 30.61in /  1036.5hPa WNW 5.8mph /  9.3km/h 5.8mph /  9.3km/h 71% 0.00in /  0mm 271.0 W/m2
14:36 8.7 °F /  -12.9 °C 1.2 °F /  -17.1 °C 30.61in /  1036.5hPa West 6.9mph /  11.1km/h 6.9mph /  11.1km/h 71% 0.00in /  0mm 267.0 W/m2
14:41 8.9 °F /  -12.8 °C 1.4 °F /  -17 °C 30.61in /  1036.5hPa West 6.9mph /  11.1km/h 6.9mph /  11.1km/h 71% 0.00in /  0mm 253.0 W/m2
14:42 8.9 °F /  -12.8 °C 1.4 °F /  -17 °C 30.61in /  1036.5hPa WNW 8.1mph /  13km/h 8.1mph /  13km/h 71% 0.00in /  0mm 250.0 W/m2
14:44 8.9 °F /  -12.8 °C 1.4 °F /  -17 °C 30.61in /  1036.5hPa WNW 10.4mph /  16.7km/h 10.4mph /  16.7km/h 71% 0.00in /  0mm 244.0 W/m2
14:47 8.9 °F /  -12.8 °C 1.1 °F /  -17.2 °C 30.61in /  1036.5hPa WNW 9.0mph /  14.5km/h 9.0mph /  14.5km/h 70% 0.00in /  0mm 234.0 W/m2
14:52 9.0 °F /  -12.8 °C 1.2 °F /  -17.1 °C 30.61in /  1036.5hPa West 6.9mph /  11.1km/h 6.9mph /  11.1km/h 70% 0.00in /  0mm 221.0 W/m2
14:53 9.0 °F /  -12.8 °C 1.2 °F /  -17.1 °C 30.61in /  1036.5hPa WNW 8.0mph /  12.9km/h 8.0mph /  12.9km/h 70% 0.00in /  0mm 220.0 W/m2
14:58 9.1 °F /  -12.7 °C 1.3 °F /  -17.1 °C 30.61in /  1036.5hPa WNW 8.1mph /  13km/h 8.1mph /  13km/h 70% 0.00in /  0mm 204.0 W/m2
15:03 9.2 °F /  -12.7 °C 1.4 °F /  -17 °C 30.62in /  1036.8hPa West 9.2mph /  14.8km/h 9.2mph /  14.8km/h 70% 0.00in /  0mm 188.0 W/m2
15:04 9.2 °F /  -12.7 °C 1.4 °F /  -17 °C 30.61in /  1036.5hPa NW 10.4mph /  16.7km/h 10.4mph /  16.7km/h 70% 0.00in /  0mm 186.0 W/m2
15:05 9.2 °F /  -12.7 °C 1.4 °F /  -17 °C 30.62in /  1036.8hPa WNW 9.2mph /  14.8km/h 9.2mph /  14.8km/h 70% 0.00in /  0mm 185.0 W/m2
15:09 9.2 °F /  -12.7 °C 1.4 °F /  -17 °C 30.62in /  1036.8hPa West 9.0mph /  14.5km/h 9.0mph /  14.5km/h 70% 0.00in /  0mm 172.0 W/m2
15:11 9.2 °F /  -12.7 °C 1.4 °F /  -17 °C 30.61in /  1036.5hPa West 11.5mph /  18.5km/h 11.5mph /  18.5km/h 70% 0.00in /  0mm 167.0 W/m2
15:14 9.3 °F /  -12.6 °C 1.5 °F /  -16.9 °C 30.62in /  1036.8hPa West 11.5mph /  18.5km/h 11.5mph /  18.5km/h 70% 0.00in /  0mm 158.0 W/m2
15:19 9.2 °F /  -12.7 °C 1.4 °F /  -17 °C 30.61in /  1036.5hPa WNW 8.1mph /  13km/h 8.1mph /  13km/h 70% 0.00in /  0mm 146.0 W/m2
15:21 9.2 °F /  -12.7 °C 1.4 °F /  -17 °C 30.61in /  1036.5hPa WNW 11.5mph /  18.5km/h 11.5mph /  18.5km/h 70% 0.00in /  0mm 142.0 W/m2
15:26 9.3 °F /  -12.6 °C 1.5 °F /  -16.9 °C 30.61in /  1036.5hPa West 11.5mph /  18.5km/h 11.5mph /  18.5km/h 70% 0.00in /  0mm 130.0 W/m2
15:28 9.3 °F /  -12.6 °C 1.5 °F /  -16.9 °C 30.61in /  1036.5hPa WNW 8.1mph /  13km/h 8.1mph /  13km/h 70% 0.00in /  0mm 123.0 W/m2
15:33 9.2 °F /  -12.7 °C 1.4 °F /  -17 °C 30.62in /  1036.8hPa WNW 6.0mph /  9.7km/h 6.0mph /  9.7km/h 70% 0.00in /  0mm 109.0 W/m2
15:35 9.1 °F /  -12.7 °C 1.3 °F /  -17.1 °C 30.62in /  1036.8hPa WNW 11.5mph /  18.5km/h 11.5mph /  18.5km/h 70% 0.00in /  0mm 100.0 W/m2
15:40 8.9 °F /  -12.8 °C 1.1 °F /  -17.2 °C 30.62in /  1036.8hPa West 11.5mph /  18.5km/h 11.5mph /  18.5km/h 70% 0.00in /  0mm 39.0 W/m2
15:41 8.9 °F /  -12.8 °C 1.1 °F /  -17.2 °C 30.62in /  1036.8hPa WNW 10.4mph /  16.7km/h 10.4mph /  16.7km/h 70% 0.00in /  0mm 30.0 W/m2
15:45 8.7 °F /  -12.9 °C 1.2 °F /  -17.1 °C 30.62in /  1036.8hPa West 9.2mph /  14.8km/h 9.2mph /  14.8km/h 71% 0.00in /  0mm 26.0 W/m2
15:48 8.6 °F /  -13 °C 1.1 °F /  -17.2 °C 30.62in /  1036.8hPa WSW 11.5mph /  18.5km/h 11.5mph /  18.5km/h 71% 0.00in /  0mm 25.0 W/m2
15:51 8.5 °F /  -13.1 °C 1.0 °F /  -17.2 °C 30.62in /  1036.8hPa WNW 11.5mph /  18.5km/h 11.5mph /  18.5km/h 71% 0.00in /  0mm 23.0 W/m2
15:53 8.4 °F /  -13.1 °C 0.9 °F /  -17.3 °C 30.62in /  1036.8hPa WNW 9.2mph /  14.8km/h 9.2mph /  14.8km/h 71% 0.00in /  0mm 21.0 W/m2
15:58 8.2 °F /  -13.2 °C 0.7 °F /  -17.4 °C 30.62in /  1036.8hPa WNW 9.2mph /  14.8km/h 9.2mph /  14.8km/h 71% 0.00in /  0mm 21.0 W/m2
16:01 8.1 °F /  -13.3 °C 0.6 °F /  -17.4 °C 30.62in /  1036.8hPa West 11.5mph /  18.5km/h 11.5mph /  18.5km/h 71% 0.00in /  0mm 19.0 W/m2
16:04 8.0 °F /  -13.3 °C 0.5 °F /  -17.5 °C 30.63in /  1037.1hPa NW 13.8mph /  22.2km/h 13.8mph /  22.2km/h 71% 0.00in /  0mm 18.0 W/m2
16:07 8.0 °F /  -13.3 °C 0.5 °F /  -17.5 °C 30.63in /  1037.1hPa WNW 11.5mph /  18.5km/h 11.5mph /  18.5km/h 71% 0.00in /  0mm 16.0 W/m2
16:10 7.8 °F /  -13.4 °C 0.3 °F /  -17.6 °C 30.63in /  1037.1hPa WNW 9.2mph /  14.8km/h 9.2mph /  14.8km/h 71% 0.00in /  0mm 16.0 W/m2
16:15 7.6 °F /  -13.6 °C 0.2 °F /  -17.7 °C 30.63in /  1037.1hPa WNW 6.9mph /  11.1km/h 6.9mph /  11.1km/h 71% 0.00in /  0mm 12.0 W/m2
16:16 7.7 °F /  -13.5 °C 0.2 °F /  -17.7 °C 30.63in /  1037.1hPa WNW 6.9mph /  11.1km/h 6.9mph /  11.1km/h 71% 0.00in /  0mm 12.0 W/m2
16:21 7.5 °F /  -13.6 °C 0.1 °F /  -17.7 °C 30.63in /  1037.1hPa WNW 9.2mph /  14.8km/h 9.2mph /  14.8km/h 71% 0.00in /  0mm 11.0 W/m2
16:23 7.4 °F /  -13.7 °C 0.0 °F /  -17.8 °C 30.63in /  1037.1hPa WNW 10.4mph /  16.7km/h 10.4mph /  16.7km/h 71% 0.00in /  0mm 9.0 W/m2
16:27 7.3 °F /  -13.7 °C -0.1 °F /  -17.8 °C 30.63in /  1037.1hPa WNW 9.2mph /  14.8km/h 9.2mph /  14.8km/h 71% 0.00in /  0mm 7.0 W/m2
16:28 7.2 °F /  -13.8 °C -0.2 °F /  -17.9 °C 30.63in /  1037.1hPa WNW 9.2mph /  14.8km/h 9.2mph /  14.8km/h 71% 0.00in /  0mm 7.0 W/m2
16:33 7.1 °F /  -13.8 °C -0.3 °F /  -17.9 °C 30.63in /  1037.1hPa WNW 11.0mph /  17.7km/h 11.0mph /  17.7km/h 71% 0.00in /  0mm 0.0 W/m2
16:36 7.1 °F /  -13.8 °C -0.3 °F /  -17.9 °C 30.64in /  1037.5hPa WNW 9.2mph /  14.8km/h 9.2mph /  14.8km/h 71% 0.00in /  0mm 0.0 W/m2
16:41 6.9 °F /  -13.9 °C -0.5 °F /  -18.1 °C 30.64in /  1037.5hPa WNW 5.8mph /  9.3km/h 5.8mph /  9.3km/h 71% 0.00in /  0mm 0.0 W/m2
16:45 6.7 °F /  -14.1 °C -0.7 °F /  -18.2 °C 30.64in /  1037.5hPa WNW 8.1mph /  13km/h 8.1mph /  13km/h 71% 0.00in /  0mm 0.0 W/m2
16:47 6.7 °F /  -14.1 °C -0.7 °F /  -18.2 °C 30.64in /  1037.5hPa West 9.2mph /  14.8km/h 9.2mph /  14.8km/h 71% 0.00in /  0mm 0.0 W/m2
16:52 6.6 °F /  -14.1 °C -0.8 °F /  -18.2 °C 30.64in /  1037.5hPa WNW 9.2mph /  14.8km/h 9.2mph /  14.8km/h 71% 0.00in /  0mm 0.0 W/m2
16:53 6.5 °F /  -14.2 °C -0.9 °F /  -18.3 °C 30.64in /  1037.5hPa WNW 9.2mph /  14.8km/h 9.2mph /  14.8km/h 71% 0.00in /  0mm 0.0 W/m2
16:58 6.4 °F /  -14.2 °C -1.0 °F /  -18.3 °C 30.64in /  1037.5hPa WNW 10.4mph /  16.7km/h 10.4mph /  16.7km/h 71% 0.00in /  0mm 0.0 W/m2
16:59 6.4 °F /  -14.2 °C -1.0 °F /  -18.3 °C 30.65in /  1037.8hPa West 8.1mph /  13km/h 8.1mph /  13km/h 71% 0.00in /  0mm 0.0 W/m2
17:00 6.4 °F /  -14.2 °C -1.0 °F /  -18.3 °C 30.64in /  1037.5hPa WNW 10.4mph /  16.7km/h 10.4mph /  16.7km/h 71% 0.00in /  0mm 0.0 W/m2
17:04 6.3 °F /  -14.3 °C -1.1 °F /  -18.4 °C 30.65in /  1037.8hPa WNW 8.1mph /  13km/h 8.1mph /  13km/h 71% 0.00in /  0mm 0.0 W/m2
17:05 6.3 °F /  -14.3 °C -1.1 °F /  -18.4 °C 30.65in /  1037.8hPa WNW 9.2mph /  14.8km/h 9.2mph /  14.8km/h 71% 0.00in /  0mm 0.0 W/m2
17:10 6.2 °F /  -14.3 °C -0.9 °F /  -18.3 °C 30.64in /  1037.5hPa NW 9.2mph /  14.8km/h 9.2mph /  14.8km/h 72% 0.00in /  0mm 0.0 W/m2
17:12 6.1 °F /  -14.4 °C -1.0 °F /  -18.3 °C 30.65in /  1037.8hPa WNW 10.4mph /  16.7km/h 10.4mph /  16.7km/h 72% 0.00in /  0mm 0.0 W/m2
17:17 6.0 °F /  -14.4 °C -1.1 °F /  -18.4 °C 30.65in /  1037.8hPa WNW 8.0mph /  12.9km/h 8.0mph /  12.9km/h 72% 0.00in /  0mm 0.0 W/m2
17:18 5.9 °F /  -14.5 °C -1.2 °F /  -18.4 °C 30.65in /  1037.8hPa WNW 7.0mph /  11.3km/h 7.0mph /  11.3km/h 72% 0.00in /  0mm 0.0 W/m2
17:23 5.8 °F /  -14.6 °C -1.3 °F /  -18.5 °C 30.65in /  1037.8hPa WNW 5.0mph /  8km/h 5.0mph /  8km/h 72% 0.00in /  0mm 0.0 W/m2
17:24 5.7 °F /  -14.6 °C -1.4 °F /  -18.6 °C 30.65in /  1037.8hPa WNW 10.4mph /  16.7km/h 10.4mph /  16.7km/h 72% 0.00in /  0mm 0.0 W/m2
17:26 5.6 °F /  -14.7 °C -1.5 °F /  -18.6 °C 30.65in /  1037.8hPa WNW 8.1mph /  13km/h 8.1mph /  13km/h 72% 0.00in /  0mm 0.0 W/m2
17:30 5.5 °F /  -14.7 °C -1.6 °F /  -18.7 °C 30.65in /  1037.8hPa West 11.5mph /  18.5km/h 11.5mph /  18.5km/h 72% 0.00in /  0mm 0.0 W/m2
17:35 5.4 °F /  -14.8 °C -1.7 °F /  -18.7 °C 30.66in /  1038.1hPa WNW 8.1mph /  13km/h 8.1mph /  13km/h 72% 0.00in /  0mm 0.0 W/m2
17:37 5.3 °F /  -14.8 °C -1.8 °F /  -18.8 °C 30.66in /  1038.1hPa WNW 5.8mph /  9.3km/h 5.8mph /  9.3km/h 72% 0.00in /  0mm 0.0 W/m2
17:42 5.2 °F /  -14.9 °C -1.9 °F /  -18.8 °C 30.66in /  1038.1hPa WNW 10.4mph /  16.7km/h 10.4mph /  16.7km/h 72% 0.00in /  0mm 0.0 W/m2
17:47 5.0 °F /  -15 °C -2.1 °F /  -18.9 °C 30.66in /  1038.1hPa WNW 8.1mph /  13km/h 8.1mph /  13km/h 72% 0.00in /  0mm 0.0 W/m2
17:49 5.0 °F /  -15 °C -1.8 °F /  -18.8 °C 30.66in /  1038.1hPa WNW 9.2mph /  14.8km/h 9.2mph /  14.8km/h 73% 0.00in /  0mm 0.0 W/m2
17:53 4.9 °F /  -15.1 °C -1.9 °F /  -18.8 °C 30.66in /  1038.1hPa WNW 11.5mph /  18.5km/h 11.5mph /  18.5km/h 73% 0.00in /  0mm 0.0 W/m2
17:58 4.8 °F /  -15.1 °C -2.0 °F /  -18.9 °C 30.66in /  1038.1hPa WNW 10.4mph /  16.7km/h 10.4mph /  16.7km/h 73% 0.00in /  0mm 0.0 W/m2
18:03 4.8 °F /  -15.1 °C -2.0 °F /  -18.9 °C 30.66in /  1038.1hPa WNW 8.1mph /  13km/h 8.1mph /  13km/h 73% 0.00in /  0mm 0.0 W/m2
18:04 4.8 °F /  -15.1 °C -2.0 °F /  -18.9 °C 30.66in /  1038.1hPa NW 8.1mph /  13km/h 8.1mph /  13km/h 73% 0.00in /  0mm 0.0 W/m2
18:07 4.7 °F /  -15.2 °C -2.1 °F /  -18.9 °C 30.66in /  1038.1hPa WNW 9.2mph /  14.8km/h 9.2mph /  14.8km/h 73% 0.00in /  0mm 0.0 W/m2
18:09 4.7 °F /  -15.2 °C -2.1 °F /  -18.9 °C 30.66in /  1038.1hPa WNW 11.5mph /  18.5km/h 11.5mph /  18.5km/h 73% 0.00in /  0mm 0.0 W/m2
18:14 4.6 °F /  -15.2 °C -2.2 °F /  -19 °C 30.66in /  1038.1hPa WNW 11.5mph /  18.5km/h 11.5mph /  18.5km/h 73% 0.00in /  0mm 0.0 W/m2
18:16 4.6 °F /  -15.2 °C -2.2 °F /  -19 °C 30.66in /  1038.1hPa WNW 10.0mph /  16.1km/h 10.0mph /  16.1km/h 73% 0.00in /  0mm 0.0 W/m2
18:19 4.6 °F /  -15.2 °C -2.2 °F /  -19 °C 30.67in /  1038.5hPa WNW 9.2mph /  14.8km/h 9.2mph /  14.8km/h 73% 0.00in /  0mm 0.0 W/m2
18:24 4.5 °F /  -15.3 °C -2.3 °F /  -19.1 °C 30.67in /  1038.5hPa WNW 8.1mph /  13km/h 8.1mph /  13km/h 73% 0.00in /  0mm 0.0 W/m2
18:26 4.5 °F /  -15.3 °C -2.3 °F /  -19.1 °C 30.67in /  1038.5hPa WNW 12.7mph /  20.4km/h 12.7mph /  20.4km/h 73% 0.00in /  0mm 0.0 W/m2
18:29 4.5 °F /  -15.3 °C -2.3 °F /  -19.1 °C 30.67in /  1038.5hPa WNW 3.5mph /  5.6km/h 3.5mph /  5.6km/h 73% 0.00in /  0mm 0.0 W/m2
18:32 4.5 °F /  -15.3 °C -2.3 °F /  -19.1 °C 30.66in /  1038.1hPa WNW 3.5mph /  5.6km/h 3.5mph /  5.6km/h 73% 0.00in /  0mm 0.0 W/m2
18:37 4.4 °F /  -15.3 °C -2.3 °F /  -19.1 °C 30.67in /  1038.5hPa WNW 9.2mph /  14.8km/h 9.2mph /  14.8km/h 73% 0.00in /  0mm 0.0 W/m2
18:42 4.3 °F /  -15.4 °C -2.4 °F /  -19.1 °C 30.67in /  1038.5hPa WNW 10.4mph /  16.7km/h 10.4mph /  16.7km/h 73% 0.00in /  0mm 0.0 W/m2
18:43 4.3 °F /  -15.4 °C -2.4 °F /  -19.1 °C 30.67in /  1038.5hPa West 10.4mph /  16.7km/h 10.4mph /  16.7km/h 73% 0.00in /  0mm 0.0 W/m2
18:46 4.2 °F /  -15.4 °C -2.5 °F /  -19.2 °C 30.67in /  1038.5hPa NW 8.1mph /  13km/h 8.1mph /  13km/h 73% 0.00in /  0mm 0.0 W/m2
18:51 4.3 °F /  -15.4 °C -2.4 °F /  -19.1 °C 30.67in /  1038.5hPa NW 10.4mph /  16.7km/h 10.4mph /  16.7km/h 73% 0.00in /  0mm 0.0 W/m2
18:52 4.3 °F /  -15.4 °C -2.4 °F /  -19.1 °C 30.67in /  1038.5hPa NW 10.4mph /  16.7km/h 10.4mph /  16.7km/h 73% 0.00in /  0mm 0.0 W/m2
18:57 4.3 °F /  -15.4 °C -2.4 °F /  -19.1 °C 30.67in /  1038.5hPa NW 11.5mph /  18.5km/h 11.5mph /  18.5km/h 73% 0.00in /  0mm 0.0 W/m2
18:58 4.3 °F /  -15.4 °C -2.4 °F /  -19.1 °C 30.67in /  1038.5hPa NW 11.5mph /  18.5km/h 11.5mph /  18.5km/h 73% 0.00in /  0mm 0.0 W/m2
19:03 4.2 °F /  -15.4 °C -2.5 °F /  -19.2 °C 30.67in /  1038.5hPa WNW 8.1mph /  13km/h 8.1mph /  13km/h 73% 0.00in /  0mm 0.0 W/m2
19:04 4.2 °F /  -15.4 °C -2.5 °F /  -19.2 °C 30.67in /  1038.5hPa WNW 10.4mph /  16.7km/h 10.4mph /  16.7km/h 73% 0.00in /  0mm 0.0 W/m2
19:09 4.1 °F /  -15.5 °C -2.6 °F /  -19.2 °C 30.68in /  1038.8hPa WNW 10.4mph /  16.7km/h 10.4mph /  16.7km/h 73% 0.00in /  0mm 0.0 W/m2
19:10 4.0 °F /  -15.6 °C -2.7 °F /  -19.3 °C 30.68in /  1038.8hPa WNW 7.0mph /  11.3km/h 7.0mph /  11.3km/h 73% 0.00in /  0mm 0.0 W/m2
19:15 4.0 °F /  -15.6 °C -2.7 °F /  -19.3 °C 30.68in /  1038.8hPa WNW 10.4mph /  16.7km/h 10.4mph /  16.7km/h 73% 0.00in /  0mm 0.0 W/m2
19:16 3.9 °F /  -15.6 °C -2.8 °F /  -19.3 °C 30.68in /  1038.8hPa WNW 11.5mph /  18.5km/h 11.5mph /  18.5km/h 73% 0.00in /  0mm 0.0 W/m2
19:18 3.8 °F /  -15.7 °C -2.9 °F /  -19.4 °C 30.68in /  1038.8hPa WNW 8.1mph /  13km/h 8.1mph /  13km/h 73% 0.00in /  0mm 0.0 W/m2
19:21 3.8 °F /  -15.7 °C -2.9 °F /  -19.4 °C 30.68in /  1038.8hPa WNW 11.5mph /  18.5km/h 11.5mph /  18.5km/h 73% 0.00in /  0mm 0.0 W/m2
19:26 3.8 °F /  -15.7 °C -2.9 °F /  -19.4 °C 30.68in /  1038.8hPa NW 10.4mph /  16.7km/h 10.4mph /  16.7km/h 73% 0.00in /  0mm 0.0 W/m2
19:31 3.7 °F /  -15.7 °C -3.0 °F /  -19.4 °C 30.68in /  1038.8hPa WNW 9.0mph /  14.5km/h 9.0mph /  14.5km/h 73% 0.00in /  0mm 0.0 W/m2
19:33 3.7 °F /  -15.7 °C -3.0 °F /  -19.4 °C 30.68in /  1038.8hPa WNW 9.2mph /  14.8km/h 9.2mph /  14.8km/h 73% 0.00in /  0mm 0.0 W/m2
19:37 3.7 °F /  -15.7 °C -3.0 °F /  -19.4 °C 30.68in /  1038.8hPa WNW 10.4mph /  16.7km/h 10.4mph /  16.7km/h 73% 0.00in /  0mm 0.0 W/m2
19:39 3.7 °F /  -15.7 °C -3.0 °F /  -19.4 °C 30.68in /  1038.8hPa NW 6.9mph /  11.1km/h 6.9mph /  11.1km/h 73% 0.00in /  0mm 0.0 W/m2
19:43 3.6 °F /  -15.8 °C -3.4 °F /  -19.7 °C 30.69in /  1039.2hPa WNW 9.2mph /  14.8km/h 9.2mph /  14.8km/h 72% 0.00in /  0mm 0.0 W/m2
19:48 3.3 °F /  -15.9 °C -3.7 °F /  -19.8 °C 30.68in /  1038.8hPa WNW 5.0mph /  8km/h 5.0mph /  8km/h 72% 0.00in /  0mm 0.0 W/m2
19:49 3.2 °F /  -16 °C -3.8 °F /  -19.9 °C 30.69in /  1039.2hPa WNW 6.9mph /  11.1km/h 6.9mph /  11.1km/h 72% 0.00in /  0mm 0.0 W/m2
19:54 2.9 °F /  -16.2 °C -3.8 °F /  -19.9 °C 30.69in /  1039.2hPa WNW 8.1mph /  13km/h 8.1mph /  13km/h 73% 0.00in /  0mm 0.0 W/m2
19:55 2.9 °F /  -16.2 °C -3.8 °F /  -19.9 °C 30.69in /  1039.2hPa WNW 9.2mph /  14.8km/h 9.2mph /  14.8km/h 73% 0.00in /  0mm 0.0 W/m2
20:00 2.8 °F /  -16.2 °C -3.9 °F /  -19.9 °C 30.69in /  1039.2hPa WNW 6.0mph /  9.7km/h 6.0mph /  9.7km/h 73% 0.00in /  0mm 0.0 W/m2
20:02 2.7 °F /  -16.3 °C -4.0 °F /  -20 °C 30.69in /  1039.2hPa West 7.0mph /  11.3km/h 7.0mph /  11.3km/h 73% 0.00in /  0mm 0.0 W/m2
20:07 2.7 °F /  -16.3 °C -3.7 °F /  -19.8 °C 30.69in /  1039.2hPa WNW 11.5mph /  18.5km/h 11.5mph /  18.5km/h 74% 0.00in /  0mm 0.0 W/m2
20:08 2.7 °F /  -16.3 °C -3.7 °F /  -19.8 °C 30.69in /  1039.2hPa WNW 11.5mph /  18.5km/h 11.5mph /  18.5km/h 74% 0.00in /  0mm 0.0 W/m2
20:13 2.5 °F /  -16.4 °C -3.9 °F /  -19.9 °C 30.69in /  1039.2hPa West 10.4mph /  16.7km/h 10.4mph /  16.7km/h 74% 0.00in /  0mm 0.0 W/m2
20:18 2.4 °F /  -16.4 °C -4.0 °F /  -20 °C 30.69in /  1039.2hPa West 11.5mph /  18.5km/h 11.5mph /  18.5km/h 74% 0.00in /  0mm 0.0 W/m2
20:23 2.2 °F /  -16.6 °C -4.2 °F /  -20.1 °C 30.69in /  1039.2hPa WNW 11.5mph /  18.5km/h 11.5mph /  18.5km/h 74% 0.00in /  0mm 0.0 W/m2
20:26 2.1 °F /  -16.6 °C -4.3 °F /  -20.2 °C 30.69in /  1039.2hPa West 9.2mph /  14.8km/h 9.2mph /  14.8km/h 74% 0.00in /  0mm 0.0 W/m2
20:29 2.0 °F /  -16.7 °C -4.4 °F /  -20.2 °C 30.69in /  1039.2hPa WNW 9.2mph /  14.8km/h 9.2mph /  14.8km/h 74% 0.00in /  0mm 0.0 W/m2
20:34 1.8 °F /  -16.8 °C -4.3 °F /  -20.2 °C 30.69in /  1039.2hPa WNW 11.5mph /  18.5km/h 11.5mph /  18.5km/h 75% 0.00in /  0mm 0.0 W/m2
20:35 1.7 °F /  -16.8 °C -4.7 °F /  -20.4 °C 30.69in /  1039.2hPa WNW 11.5mph /  18.5km/h 11.5mph /  18.5km/h 74% 0.00in /  0mm 0.0 W/m2
20:40 1.5 °F /  -16.9 °C -4.6 °F /  -20.3 °C 30.69in /  1039.2hPa WNW 10.4mph /  16.7km/h 10.4mph /  16.7km/h 75% 0.00in /  0mm 0.0 W/m2
20:42 1.5 °F /  -16.9 °C -4.6 °F /  -20.3 °C 30.69in /  1039.2hPa WNW 10.0mph /  16.1km/h 10.0mph /  16.1km/h 75% 0.00in /  0mm 0.0 W/m2
20:46 1.4 °F /  -17 °C -4.7 °F /  -20.4 °C 30.70in /  1039.5hPa NW 11.5mph /  18.5km/h 11.5mph /  18.5km/h 75% 0.00in /  0mm 0.0 W/m2
20:51 1.3 °F /  -17.1 °C -4.8 °F /  -20.4 °C 30.69in /  1039.2hPa WNW 10.4mph /  16.7km/h 10.4mph /  16.7km/h 75% 0.00in /  0mm 0.0 W/m2
20:52 1.2 °F /  -17.1 °C -4.9 °F /  -20.5 °C 30.70in /  1039.5hPa WNW 8.1mph /  13km/h 8.1mph /  13km/h 75% 0.00in /  0mm 0.0 W/m2
20:54 1.2 °F /  -17.1 °C -4.9 °F /  -20.5 °C 30.70in /  1039.5hPa West 12.7mph /  20.4km/h 12.7mph /  20.4km/h 75% 0.00in /  0mm 0.0 W/m2
20:57 1.1 °F /  -17.2 °C -5.0 °F /  -20.6 °C 30.70in /  1039.5hPa WNW 11.5mph /  18.5km/h 11.5mph /  18.5km/h 75% 0.00in /  0mm 0.0 W/m2
21:01 1.1 °F /  -17.2 °C -5.0 °F /  -20.6 °C 30.70in /  1039.5hPa NW 11.5mph /  18.5km/h 11.5mph /  18.5km/h 75% 0.00in /  0mm 0.0 W/m2
21:02 1.1 °F /  -17.2 °C -5.0 °F /  -20.6 °C 30.70in /  1039.5hPa WNW 11.5mph /  18.5km/h 11.5mph /  18.5km/h 75% 0.00in /  0mm 0.0 W/m2
21:07 1.0 °F /  -17.2 °C -5.1 °F /  -20.6 °C 30.70in /  1039.5hPa WNW 10.4mph /  16.7km/h 10.4mph /  16.7km/h 75% 0.00in /  0mm 0.0 W/m2
21:10 0.9 °F /  -17.3 °C -4.9 °F /  -20.5 °C 30.70in /  1039.5hPa WNW 12.7mph /  20.4km/h 12.7mph /  20.4km/h 76% 0.00in /  0mm 0.0 W/m2
21:13 0.8 °F /  -17.3 °C -5.0 °F /  -20.6 °C 30.70in /  1039.5hPa WNW 11.5mph /  18.5km/h 11.5mph /  18.5km/h 76% 0.00in /  0mm 0.0 W/m2
21:17 0.6 °F /  -17.4 °C -5.2 °F /  -20.7 °C 30.70in /  1039.5hPa West 8.1mph /  13km/h 8.1mph /  13km/h 76% 0.00in /  0mm 0.0 W/m2
21:22 0.4 °F /  -17.6 °C -5.1 °F /  -20.6 °C 30.70in /  1039.5hPa WNW 8.1mph /  13km/h 8.1mph /  13km/h 77% 0.00in /  0mm 0.0 W/m2
21:25 0.2 °F /  -17.7 °C -5.3 °F /  -20.7 °C 30.70in /  1039.5hPa WNW 8.1mph /  13km/h 8.1mph /  13km/h 77% 0.00in /  0mm 0.0 W/m2
21:28 0.0 °F /  -17.8 °C -5.5 °F /  -20.8 °C 30.70in /  1039.5hPa West 7.0mph /  11.3km/h 8.0mph /  12.9km/h 77% 0.00in /  0mm 0.0 W/m2
21:31 -0.1 °F /  -17.8 °C -5.6 °F /  -20.9 °C 30.70in /  1039.5hPa WNW 11.5mph /  18.5km/h 11.5mph /  18.5km/h 77% 0.00in /  0mm 0.0 W/m2
21:34 -0.2 °F /  -17.9 °C -5.7 °F /  -20.9 °C 30.71in /  1039.8hPa NW 7.0mph /  11.3km/h 7.0mph /  11.3km/h 77% 0.00in /  0mm 0.0 W/m2
21:39 -0.4 °F /  -18 °C -5.9 °F /  -21.1 °C 30.71in /  1039.8hPa WNW 7.0mph /  11.3km/h 7.0mph /  11.3km/h 77% 0.00in /  0mm 0.0 W/m2
21:43 -0.6 °F /  -18.1 °C -6.1 °F /  -21.2 °C 30.71in /  1039.8hPa WNW 10.4mph /  16.7km/h 10.4mph /  16.7km/h 77% 0.00in /  0mm 0.0 W/m2
21:45 -0.6 °F /  -18.1 °C -6.1 °F /  -21.2 °C 30.71in /  1039.8hPa West 9.2mph /  14.8km/h 9.2mph /  14.8km/h 77% 0.00in /  0mm 0.0 W/m2
21:50 -0.8 °F /  -18.2 °C -6.3 °F /  -21.3 °C 30.71in /  1039.8hPa WNW 9.2mph /  14.8km/h 9.2mph /  14.8km/h 77% 0.00in /  0mm 0.0 W/m2
21:55 -1.0 °F /  -18.3 °C -6.7 °F /  -21.5 °C 30.71in /  1039.8hPa WNW 12.7mph /  20.4km/h 12.7mph /  20.4km/h 76% 0.00in /  0mm 0.0 W/m2
21:56 -1.0 °F /  -18.3 °C -6.7 °F /  -21.5 °C 30.71in /  1039.8hPa WNW 11.5mph /  18.5km/h 11.5mph /  18.5km/h 76% 0.00in /  0mm 0.0 W/m2
22:01 -1.0 °F /  -18.3 °C -6.7 °F /  -21.5 °C 30.71in /  1039.8hPa NW 10.4mph /  16.7km/h 10.4mph /  16.7km/h 76% 0.00in /  0mm 0.0 W/m2
22:06 -1.1 °F /  -18.4 °C -6.8 °F /  -21.6 °C 30.71in /  1039.8hPa WNW 11.5mph /  18.5km/h 11.5mph /  18.5km/h 76% 0.00in /  0mm 0.0 W/m2
22:07 -1.1 °F /  -18.4 °C -6.8 °F /  -21.6 °C 30.71in /  1039.8hPa West 11.5mph /  18.5km/h 11.5mph /  18.5km/h 76% 0.00in /  0mm 0.0 W/m2
22:12 -1.2 °F /  -18.4 °C -6.9 °F /  -21.6 °C 30.72in /  1040.2hPa NNW 9.2mph /  14.8km/h 9.2mph /  14.8km/h 76% 0.00in /  0mm 0.0 W/m2
22:13 -1.2 °F /  -18.4 °C -6.9 °F /  -21.6 °C 30.72in /  1040.2hPa West 10.0mph /  16.1km/h 10.0mph /  16.1km/h 76% 0.00in /  0mm 0.0 W/m2
22:18 -1.3 °F /  -18.5 °C -7.3 °F /  -21.8 °C 30.72in /  1040.2hPa West 11.5mph /  18.5km/h 11.5mph /  18.5km/h 75% 0.00in /  0mm 0.0 W/m2
22:19 -1.4 °F /  -18.6 °C -7.4 °F /  -21.9 °C 30.71in /  1039.8hPa WNW 11.5mph /  18.5km/h 11.5mph /  18.5km/h 75% 0.00in /  0mm 0.0 W/m2
22:24 -1.5 °F /  -18.6 °C -7.5 °F /  -21.9 °C 30.72in /  1040.2hPa WNW 9.0mph /  14.5km/h 9.0mph /  14.5km/h 75% 0.00in /  0mm 0.0 W/m2
22:29 -1.6 °F /  -18.7 °C -7.6 °F /  -22 °C 30.72in /  1040.2hPa WNW 9.2mph /  14.8km/h 9.2mph /  14.8km/h 75% 0.00in /  0mm 0.0 W/m2
22:34 -1.7 °F /  -18.7 °C -7.7 °F /  -22.1 °C 30.72in /  1040.2hPa WNW 11.5mph /  18.5km/h 11.5mph /  18.5km/h 75% 0.00in /  0mm 0.0 W/m2
22:35 -1.7 °F /  -18.7 °C -7.7 °F /  -22.1 °C 30.72in /  1040.2hPa WNW 11.5mph /  18.5km/h 11.5mph /  18.5km/h 75% 0.00in /  0mm 0.0 W/m2
22:38 -1.8 °F /  -18.8 °C -7.8 °F /  -22.1 °C 30.72in /  1040.2hPa West 11.5mph /  18.5km/h 11.5mph /  18.5km/h 75% 0.00in /  0mm 0.0 W/m2
22:40 -1.8 °F /  -18.8 °C -7.8 °F /  -22.1 °C 30.72in /  1040.2hPa WNW 9.0mph /  14.5km/h 9.0mph /  14.5km/h 75% 0.00in /  0mm 0.0 W/m2
22:43 -1.9 °F /  -18.8 °C -7.9 °F /  -22.2 °C 30.73in /  1040.5hPa West 8.1mph /  13km/h 8.1mph /  13km/h 75% 0.00in /  0mm 0.0 W/m2
22:46 -1.8 °F /  -18.8 °C -8.1 °F /  -22.3 °C 30.73in /  1040.5hPa West 10.4mph /  16.7km/h 10.4mph /  16.7km/h 74% 0.00in /  0mm 0.0 W/m2
22:51 -1.8 °F /  -18.8 °C -8.1 °F /  -22.3 °C 30.72in /  1040.2hPa West 9.2mph /  14.8km/h 9.2mph /  14.8km/h 74% 0.00in /  0mm 0.0 W/m2
22:52 -1.8 °F /  -18.8 °C -8.1 °F /  -22.3 °C 30.73in /  1040.5hPa WNW 8.1mph /  13km/h 8.1mph /  13km/h 74% 0.00in /  0mm 0.0 W/m2
22:57 -1.8 °F /  -18.8 °C -7.8 °F /  -22.1 °C 30.73in /  1040.5hPa WNW 8.1mph /  13km/h 8.1mph /  13km/h 75% 0.00in /  0mm 0.0 W/m2
22:58 -1.8 °F /  -18.8 °C -7.8 °F /  -22.1 °C 30.73in /  1040.5hPa WNW 9.2mph /  14.8km/h 9.2mph /  14.8km/h 75% 0.00in /  0mm 0.0 W/m2
23:03 -1.9 °F /  -18.8 °C -7.9 °F /  -22.2 °C 30.73in /  1040.5hPa WNW 11.5mph /  18.5km/h 11.5mph /  18.5km/h 75% 0.00in /  0mm 0.0 W/m2
23:06 -2.0 °F /  -18.9 °C -8.0 °F /  -22.2 °C 30.73in /  1040.5hPa WNW 9.2mph /  14.8km/h 9.2mph /  14.8km/h 75% 0.00in /  0mm 0.0 W/m2
23:07 -2.0 °F /  -18.9 °C -8.0 °F /  -22.2 °C 30.73in /  1040.5hPa WNW 9.2mph /  14.8km/h 9.2mph /  14.8km/h 75% 0.00in /  0mm 0.0 W/m2
23:11 -2.2 °F /  -19 °C -8.2 °F /  -22.3 °C 30.73in /  1040.5hPa WNW 7.0mph /  11.3km/h 7.0mph /  11.3km/h 75% 0.00in /  0mm 0.0 W/m2
23:14 -2.2 °F /  -19 °C -7.9 °F /  -22.2 °C 30.73in /  1040.5hPa WNW 9.2mph /  14.8km/h 9.2mph /  14.8km/h 76% 0.00in /  0mm 0.0 W/m2
23:16 -2.2 °F /  -19 °C -7.9 °F /  -22.2 °C 30.73in /  1040.5hPa WNW 9.2mph /  14.8km/h 9.2mph /  14.8km/h 76% 0.00in /  0mm 0.0 W/m2
23:20 -2.3 °F /  -19.1 °C -8.0 °F /  -22.2 °C 30.73in /  1040.5hPa West 10.4mph /  16.7km/h 10.4mph /  16.7km/h 76% 0.00in /  0mm 0.0 W/m2
23:23 -2.3 °F /  -19.1 °C -8.0 °F /  -22.2 °C 30.73in /  1040.5hPa WNW 11.5mph /  18.5km/h 11.5mph /  18.5km/h 76% 0.00in /  0mm 0.0 W/m2
23:25 -2.3 °F /  -19.1 °C -8.0 °F /  -22.2 °C 30.73in /  1040.5hPa WNW 11.5mph /  18.5km/h 11.5mph /  18.5km/h 76% 0.00in /  0mm 0.0 W/m2
23:30 -2.4 °F /  -19.1 °C -8.4 °F /  -22.4 °C 30.73in /  1040.5hPa West 10.4mph /  16.7km/h 10.4mph /  16.7km/h 75% 0.00in /  0mm 0.0 W/m2
23:32 -2.5 °F /  -19.2 °C -8.5 °F /  -22.5 °C 30.73in /  1040.5hPa West 8.0mph /  12.9km/h 8.0mph /  12.9km/h 75% 0.00in /  0mm 0.0 W/m2
23:37 -2.6 °F /  -19.2 °C -8.6 °F /  -22.6 °C 30.73in /  1040.5hPa WNW 11.5mph /  18.5km/h 11.5mph /  18.5km/h 75% 0.00in /  0mm 0.0 W/m2
23:38 -2.6 °F /  -19.2 °C -8.6 °F /  -22.6 °C 30.73in /  1040.5hPa WNW 10.4mph /  16.7km/h 10.4mph /  16.7km/h 75% 0.00in /  0mm 0.0 W/m2
23:43 -2.7 °F /  -19.3 °C -8.7 °F /  -22.6 °C 30.73in /  1040.5hPa WNW 10.4mph /  16.7km/h 10.4mph /  16.7km/h 75% 0.00in /  0mm 0.0 W/m2
23:44 -2.7 °F /  -19.3 °C -8.7 °F /  -22.6 °C 30.73in /  1040.5hPa WNW 10.4mph /  16.7km/h 10.4mph /  16.7km/h 75% 0.00in /  0mm 0.0 W/m2
23:49 -2.9 °F /  -19.4 °C -8.9 °F /  -22.7 °C 30.73in /  1040.5hPa WNW 11.5mph /  18.5km/h 11.5mph /  18.5km/h 75% 0.00in /  0mm 0.0 W/m2
23:50 -3.0 °F /  -19.4 °C -9.0 °F /  -22.8 °C 30.73in /  1040.5hPa WNW 6.9mph /  11.1km/h 6.9mph /  11.1km/h 75% 0.00in /  0mm 0.0 W/m2
23:55 -3.1 °F /  -19.5 °C -9.1 °F /  -22.8 °C 30.73in /  1040.5hPa WNW 10.4mph /  16.7km/h 10.4mph /  16.7km/h 75% 0.00in /  0mm 0.0 W/m2
23:57 -3.2 °F /  -19.6 °C -9.4 °F /  -23 °C 30.73in /  1040.5hPa WNW 8.1mph /  13km/h 8.1mph /  13km/h 74% 0.00in /  0mm 0.0 W/m2
Bourbonnais, Illinois, USA
Compliments of Weather Underground - 4 mb